<?xml version="1.0" encoding="UTF-8" standalone="no" ?>
<gpx xmlns="http://www.topografix.com/GPX/1/1" xmlns:xsi="http://www.w3.org/2001/XMLSchema-instance" xsi:schemaLocation="http://www.topografix.com/GPX/1/1 http://www.topografix.com/GPX/1/1/gpx.xsd" version="1.1" creator="VisuGPX - https://www.visugpx.com">
  <metadata>
    <name>Vanade - RRaTT du 6/07/11</name>
    <desc><![CDATA[Lunch ride avec JC]]></desc>
  </metadata>
  <trk>
    <name><![CDATA[Vanade - RRaTT avec JC]]></name>
    <desc><![CDATA[Sortie en solo (Stef par motivé) qui se fait finalement avec JC rencontré par hasard.]]></desc>
    <trkseg>
      <trkpt lat="43.65852" lon="7.12108">
        <ele>15.60000038147</ele>
        <time>2011-07-06T10:06:03.000Z</time>
      </trkpt>
      <trkpt lat="43.65867" lon="7.1209">
        <ele>15.800000190735</ele>
        <time>2011-07-06T10:06:09.000Z</time>
      </trkpt>
      <trkpt lat="43.65868" lon="7.12085">
        <ele>15.60000038147</ele>
        <time>2011-07-06T10:06:10.000Z</time>
      </trkpt>
      <trkpt lat="43.65881" lon="7.12054">
        <ele>15.39999961853</ele>
        <time>2011-07-06T10:06:16.000Z</time>
      </trkpt>
      <trkpt lat="43.65885" lon="7.12024">
        <ele>14.60000038147</ele>
        <time>2011-07-06T10:06:21.000Z</time>
      </trkpt>
      <trkpt lat="43.65867" lon="7.11998">
        <ele>13.800000190735</ele>
        <time>2011-07-06T10:06:27.000Z</time>
      </trkpt>
      <trkpt lat="43.6586" lon="7.1199">
        <ele>13.800000190735</ele>
        <time>2011-07-06T10:06:29.000Z</time>
      </trkpt>
      <trkpt lat="43.65852" lon="7.11978">
        <ele>13.60000038147</ele>
        <time>2011-07-06T10:06:32.000Z</time>
      </trkpt>
      <trkpt lat="43.65849" lon="7.11961">
        <ele>13.39999961853</ele>
        <time>2011-07-06T10:06:36.000Z</time>
      </trkpt>
      <trkpt lat="43.65859" lon="7.11945">
        <ele>13.199999809265</ele>
        <time>2011-07-06T10:06:40.000Z</time>
      </trkpt>
      <trkpt lat="43.65878" lon="7.11929">
        <ele>13</ele>
        <time>2011-07-06T10:06:44.000Z</time>
      </trkpt>
      <trkpt lat="43.65898" lon="7.11902">
        <ele>13</ele>
        <time>2011-07-06T10:06:50.000Z</time>
      </trkpt>
      <trkpt lat="43.65906" lon="7.11892">
        <ele>13</ele>
        <time>2011-07-06T10:06:52.000Z</time>
      </trkpt>
      <trkpt lat="43.65918" lon="7.11875">
        <ele>12.800000190735</ele>
        <time>2011-07-06T10:06:55.000Z</time>
      </trkpt>
      <trkpt lat="43.6593" lon="7.11853">
        <ele>12.60000038147</ele>
        <time>2011-07-06T10:06:59.000Z</time>
      </trkpt>
      <trkpt lat="43.65949" lon="7.11802">
        <ele>15.199999809265</ele>
        <time>2011-07-06T10:07:07.000Z</time>
      </trkpt>
      <trkpt lat="43.6596" lon="7.11779">
        <ele>17</ele>
        <time>2011-07-06T10:07:11.000Z</time>
      </trkpt>
      <trkpt lat="43.65976" lon="7.11746">
        <ele>19.60000038147</ele>
        <time>2011-07-06T10:07:16.000Z</time>
      </trkpt>
      <trkpt lat="43.65986" lon="7.11718">
        <ele>22.60000038147</ele>
        <time>2011-07-06T10:07:20.000Z</time>
      </trkpt>
      <trkpt lat="43.65989" lon="7.11711">
        <ele>23</ele>
        <time>2011-07-06T10:07:21.000Z</time>
      </trkpt>
      <trkpt lat="43.6601" lon="7.11665">
        <ele>24.799999237061</ele>
        <time>2011-07-06T10:07:28.000Z</time>
      </trkpt>
      <trkpt lat="43.66013" lon="7.11659">
        <ele>25.39999961853</ele>
        <time>2011-07-06T10:07:29.000Z</time>
      </trkpt>
      <trkpt lat="43.6603" lon="7.1165">
        <ele>24.200000762939</ele>
        <time>2011-07-06T10:07:33.000Z</time>
      </trkpt>
      <trkpt lat="43.66029" lon="7.11648">
        <ele>24.60000038147</ele>
        <time>2011-07-06T10:07:35.000Z</time>
      </trkpt>
      <trkpt lat="43.66024" lon="7.11648">
        <ele>25.60000038147</ele>
        <time>2011-07-06T10:07:39.000Z</time>
      </trkpt>
      <trkpt lat="43.66025" lon="7.11636">
        <ele>27.200000762939</ele>
        <time>2011-07-06T10:08:24.000Z</time>
      </trkpt>
      <trkpt lat="43.66024" lon="7.11638">
        <ele>27.200000762939</ele>
        <time>2011-07-06T10:08:25.000Z</time>
      </trkpt>
      <trkpt lat="43.66025" lon="7.11638">
        <ele>26.799999237061</ele>
        <time>2011-07-06T10:08:27.000Z</time>
      </trkpt>
      <trkpt lat="43.66034" lon="7.11629">
        <ele>26.200000762939</ele>
        <time>2011-07-06T10:08:31.000Z</time>
      </trkpt>
      <trkpt lat="43.66046" lon="7.11597">
        <ele>26.799999237061</ele>
        <time>2011-07-06T10:08:37.000Z</time>
      </trkpt>
      <trkpt lat="43.66051" lon="7.11586">
        <ele>26.39999961853</ele>
        <time>2011-07-06T10:08:39.000Z</time>
      </trkpt>
      <trkpt lat="43.66073" lon="7.11531">
        <ele>25.799999237061</ele>
        <time>2011-07-06T10:08:48.000Z</time>
      </trkpt>
      <trkpt lat="43.66079" lon="7.11493">
        <ele>28.60000038147</ele>
        <time>2011-07-06T10:08:53.000Z</time>
      </trkpt>
      <trkpt lat="43.66093" lon="7.11468">
        <ele>29.799999237061</ele>
        <time>2011-07-06T10:08:57.000Z</time>
      </trkpt>
      <trkpt lat="43.66111" lon="7.11452">
        <ele>29.60000038147</ele>
        <time>2011-07-06T10:09:01.000Z</time>
      </trkpt>
      <trkpt lat="43.66142" lon="7.11424">
        <ele>28.799999237061</ele>
        <time>2011-07-06T10:09:08.000Z</time>
      </trkpt>
      <trkpt lat="43.66166" lon="7.11405">
        <ele>28.39999961853</ele>
        <time>2011-07-06T10:09:13.000Z</time>
      </trkpt>
      <trkpt lat="43.66204" lon="7.11377">
        <ele>31</ele>
        <time>2011-07-06T10:09:20.000Z</time>
      </trkpt>
      <trkpt lat="43.66221" lon="7.11361">
        <ele>32.400001525879</ele>
        <time>2011-07-06T10:09:23.000Z</time>
      </trkpt>
      <trkpt lat="43.66248" lon="7.11353">
        <ele>30.60000038147</ele>
        <time>2011-07-06T10:09:28.000Z</time>
      </trkpt>
      <trkpt lat="43.66284" lon="7.11343">
        <ele>29.60000038147</ele>
        <time>2011-07-06T10:09:34.000Z</time>
      </trkpt>
      <trkpt lat="43.66299" lon="7.11339">
        <ele>29.200000762939</ele>
        <time>2011-07-06T10:09:37.000Z</time>
      </trkpt>
      <trkpt lat="43.66334" lon="7.11321">
        <ele>29</ele>
        <time>2011-07-06T10:09:43.000Z</time>
      </trkpt>
      <trkpt lat="43.66363" lon="7.11306">
        <ele>29.200000762939</ele>
        <time>2011-07-06T10:09:48.000Z</time>
      </trkpt>
      <trkpt lat="43.6639" lon="7.11282">
        <ele>30.200000762939</ele>
        <time>2011-07-06T10:09:53.000Z</time>
      </trkpt>
      <trkpt lat="43.66394" lon="7.11276">
        <ele>30.60000038147</ele>
        <time>2011-07-06T10:09:54.000Z</time>
      </trkpt>
      <trkpt lat="43.6642" lon="7.11261">
        <ele>30.799999237061</ele>
        <time>2011-07-06T10:09:59.000Z</time>
      </trkpt>
      <trkpt lat="43.66442" lon="7.11245">
        <ele>31.60000038147</ele>
        <time>2011-07-06T10:10:03.000Z</time>
      </trkpt>
      <trkpt lat="43.66456" lon="7.11227">
        <ele>32.200000762939</ele>
        <time>2011-07-06T10:10:06.000Z</time>
      </trkpt>
      <trkpt lat="43.66482" lon="7.11205">
        <ele>33</ele>
        <time>2011-07-06T10:10:11.000Z</time>
      </trkpt>
      <trkpt lat="43.66498" lon="7.11204">
        <ele>32.599998474121</ele>
        <time>2011-07-06T10:10:15.000Z</time>
      </trkpt>
      <trkpt lat="43.66505" lon="7.11226">
        <ele>31</ele>
        <time>2011-07-06T10:10:18.000Z</time>
      </trkpt>
      <trkpt lat="43.66523" lon="7.11245">
        <ele>28.39999961853</ele>
        <time>2011-07-06T10:10:22.000Z</time>
      </trkpt>
      <trkpt lat="43.66547" lon="7.1124">
        <ele>27</ele>
        <time>2011-07-06T10:10:26.000Z</time>
      </trkpt>
      <trkpt lat="43.6658" lon="7.11217">
        <ele>25.39999961853</ele>
        <time>2011-07-06T10:10:32.000Z</time>
      </trkpt>
      <trkpt lat="43.66605" lon="7.11201">
        <ele>24.39999961853</ele>
        <time>2011-07-06T10:10:37.000Z</time>
      </trkpt>
      <trkpt lat="43.66634" lon="7.1118">
        <ele>23</ele>
        <time>2011-07-06T10:10:43.000Z</time>
      </trkpt>
      <trkpt lat="43.66649" lon="7.1118">
        <ele>22</ele>
        <time>2011-07-06T10:10:47.000Z</time>
      </trkpt>
      <trkpt lat="43.66666" lon="7.11179">
        <ele>21</ele>
        <time>2011-07-06T10:10:51.000Z</time>
      </trkpt>
      <trkpt lat="43.66677" lon="7.11176">
        <ele>21</ele>
        <time>2011-07-06T10:10:53.000Z</time>
      </trkpt>
      <trkpt lat="43.66688" lon="7.11174">
        <ele>21</ele>
        <time>2011-07-06T10:10:55.000Z</time>
      </trkpt>
      <trkpt lat="43.66705" lon="7.11165">
        <ele>21</ele>
        <time>2011-07-06T10:10:59.000Z</time>
      </trkpt>
      <trkpt lat="43.66714" lon="7.11152">
        <ele>21.39999961853</ele>
        <time>2011-07-06T10:11:03.000Z</time>
      </trkpt>
      <trkpt lat="43.66723" lon="7.1114">
        <ele>21.60000038147</ele>
        <time>2011-07-06T10:11:10.000Z</time>
      </trkpt>
      <trkpt lat="43.66733" lon="7.11129">
        <ele>21.60000038147</ele>
        <time>2011-07-06T10:11:16.000Z</time>
      </trkpt>
      <trkpt lat="43.66746" lon="7.11121">
        <ele>21</ele>
        <time>2011-07-06T10:11:23.000Z</time>
      </trkpt>
      <trkpt lat="43.66759" lon="7.11108">
        <ele>21</ele>
        <time>2011-07-06T10:11:29.000Z</time>
      </trkpt>
      <trkpt lat="43.66772" lon="7.1109">
        <ele>21.200000762939</ele>
        <time>2011-07-06T10:11:36.000Z</time>
      </trkpt>
      <trkpt lat="43.66783" lon="7.11075">
        <ele>22</ele>
        <time>2011-07-06T10:11:42.000Z</time>
      </trkpt>
      <trkpt lat="43.6679" lon="7.11058">
        <ele>23</ele>
        <time>2011-07-06T10:11:48.000Z</time>
      </trkpt>
      <trkpt lat="43.66789" lon="7.11037">
        <ele>24.39999961853</ele>
        <time>2011-07-06T10:11:55.000Z</time>
      </trkpt>
      <trkpt lat="43.66783" lon="7.11015">
        <ele>26.200000762939</ele>
        <time>2011-07-06T10:12:01.000Z</time>
      </trkpt>
      <trkpt lat="43.66781" lon="7.11011">
        <ele>26.60000038147</ele>
        <time>2011-07-06T10:12:02.000Z</time>
      </trkpt>
      <trkpt lat="43.66786" lon="7.10994">
        <ele>27.60000038147</ele>
        <time>2011-07-06T10:12:07.000Z</time>
      </trkpt>
      <trkpt lat="43.66804" lon="7.1097">
        <ele>26.799999237061</ele>
        <time>2011-07-06T10:12:15.000Z</time>
      </trkpt>
      <trkpt lat="43.66818" lon="7.10947">
        <ele>25.39999961853</ele>
        <time>2011-07-06T10:12:21.000Z</time>
      </trkpt>
      <trkpt lat="43.6682" lon="7.10916">
        <ele>25.60000038147</ele>
        <time>2011-07-06T10:12:28.000Z</time>
      </trkpt>
      <trkpt lat="43.66825" lon="7.10894">
        <ele>24.200000762939</ele>
        <time>2011-07-06T10:12:33.000Z</time>
      </trkpt>
      <trkpt lat="43.66835" lon="7.10867">
        <ele>21.200000762939</ele>
        <time>2011-07-06T10:12:40.000Z</time>
      </trkpt>
      <trkpt lat="43.66844" lon="7.10842">
        <ele>20.39999961853</ele>
        <time>2011-07-06T10:12:46.000Z</time>
      </trkpt>
      <trkpt lat="43.66847" lon="7.10808">
        <ele>20</ele>
        <time>2011-07-06T10:12:54.000Z</time>
      </trkpt>
      <trkpt lat="43.66853" lon="7.10775">
        <ele>19.799999237061</ele>
        <time>2011-07-06T10:13:02.000Z</time>
      </trkpt>
      <trkpt lat="43.6686" lon="7.10744">
        <ele>19.39999961853</ele>
        <time>2011-07-06T10:13:10.000Z</time>
      </trkpt>
      <trkpt lat="43.66868" lon="7.10713">
        <ele>19.39999961853</ele>
        <time>2011-07-06T10:13:18.000Z</time>
      </trkpt>
      <trkpt lat="43.66879" lon="7.10674">
        <ele>19.60000038147</ele>
        <time>2011-07-06T10:13:29.000Z</time>
      </trkpt>
      <trkpt lat="43.66885" lon="7.10649">
        <ele>20.60000038147</ele>
        <time>2011-07-06T10:13:35.000Z</time>
      </trkpt>
      <trkpt lat="43.66893" lon="7.10614">
        <ele>22</ele>
        <time>2011-07-06T10:13:43.000Z</time>
      </trkpt>
      <trkpt lat="43.66898" lon="7.10587">
        <ele>22.799999237061</ele>
        <time>2011-07-06T10:13:49.000Z</time>
      </trkpt>
      <trkpt lat="43.66906" lon="7.10565">
        <ele>22.60000038147</ele>
        <time>2011-07-06T10:13:55.000Z</time>
      </trkpt>
      <trkpt lat="43.66913" lon="7.10541">
        <ele>22.200000762939</ele>
        <time>2011-07-06T10:14:02.000Z</time>
      </trkpt>
      <trkpt lat="43.66923" lon="7.10509">
        <ele>21.799999237061</ele>
        <time>2011-07-06T10:14:11.000Z</time>
      </trkpt>
      <trkpt lat="43.66935" lon="7.10489">
        <ele>22.60000038147</ele>
        <time>2011-07-06T10:14:19.000Z</time>
      </trkpt>
      <trkpt lat="43.66941" lon="7.10468">
        <ele>23.799999237061</ele>
        <time>2011-07-06T10:14:25.000Z</time>
      </trkpt>
      <trkpt lat="43.66942" lon="7.10462">
        <ele>24.200000762939</ele>
        <time>2011-07-06T10:14:27.000Z</time>
      </trkpt>
      <trkpt lat="43.66938" lon="7.10437">
        <ele>25.60000038147</ele>
        <time>2011-07-06T10:14:34.000Z</time>
      </trkpt>
      <trkpt lat="43.66937" lon="7.10431">
        <ele>26</ele>
        <time>2011-07-06T10:14:36.000Z</time>
      </trkpt>
      <trkpt lat="43.66924" lon="7.10424">
        <ele>26.39999961853</ele>
        <time>2011-07-06T10:14:41.000Z</time>
      </trkpt>
      <trkpt lat="43.66906" lon="7.10417">
        <ele>27.200000762939</ele>
        <time>2011-07-06T10:14:47.000Z</time>
      </trkpt>
      <trkpt lat="43.66888" lon="7.10401">
        <ele>29</ele>
        <time>2011-07-06T10:14:54.000Z</time>
      </trkpt>
      <trkpt lat="43.66873" lon="7.104">
        <ele>29.200000762939</ele>
        <time>2011-07-06T10:15:00.000Z</time>
      </trkpt>
      <trkpt lat="43.66855" lon="7.10407">
        <ele>29</ele>
        <time>2011-07-06T10:15:07.000Z</time>
      </trkpt>
      <trkpt lat="43.66841" lon="7.10417">
        <ele>28.799999237061</ele>
        <time>2011-07-06T10:15:13.000Z</time>
      </trkpt>
      <trkpt lat="43.66824" lon="7.10423">
        <ele>31.39999961853</ele>
        <time>2011-07-06T10:15:21.000Z</time>
      </trkpt>
      <trkpt lat="43.66821" lon="7.10422">
        <ele>32.400001525879</ele>
        <time>2011-07-06T10:15:25.000Z</time>
      </trkpt>
      <trkpt lat="43.66821" lon="7.10416">
        <ele>32.400001525879</ele>
        <time>2011-07-06T10:15:31.000Z</time>
      </trkpt>
      <trkpt lat="43.66821" lon="7.10415">
        <ele>32.400001525879</ele>
        <time>2011-07-06T10:15:32.000Z</time>
      </trkpt>
      <trkpt lat="43.66824" lon="7.10398">
        <ele>32.200000762939</ele>
        <time>2011-07-06T10:15:38.000Z</time>
      </trkpt>
      <trkpt lat="43.66822" lon="7.10386">
        <ele>33.200000762939</ele>
        <time>2011-07-06T10:15:42.000Z</time>
      </trkpt>
      <trkpt lat="43.66819" lon="7.10368">
        <ele>34.200000762939</ele>
        <time>2011-07-06T10:15:49.000Z</time>
      </trkpt>
      <trkpt lat="43.66818" lon="7.10365">
        <ele>34.400001525879</ele>
        <time>2011-07-06T10:15:50.000Z</time>
      </trkpt>
      <trkpt lat="43.66814" lon="7.10355">
        <ele>35.400001525879</ele>
        <time>2011-07-06T10:15:56.000Z</time>
      </trkpt>
      <trkpt lat="43.66814" lon="7.1035">
        <ele>35.400001525879</ele>
        <time>2011-07-06T10:16:01.000Z</time>
      </trkpt>
      <trkpt lat="43.66813" lon="7.10346">
        <ele>35.799999237061</ele>
        <time>2011-07-06T10:16:03.000Z</time>
      </trkpt>
      <trkpt lat="43.66812" lon="7.10342">
        <ele>35.799999237061</ele>
        <time>2011-07-06T10:16:09.000Z</time>
      </trkpt>
      <trkpt lat="43.66811" lon="7.1034">
        <ele>36</ele>
        <time>2011-07-06T10:16:12.000Z</time>
      </trkpt>
      <trkpt lat="43.6681" lon="7.1033">
        <ele>36.599998474121</ele>
        <time>2011-07-06T10:16:16.000Z</time>
      </trkpt>
      <trkpt lat="43.66802" lon="7.10326">
        <ele>38</ele>
        <time>2011-07-06T10:16:20.000Z</time>
      </trkpt>
      <trkpt lat="43.66796" lon="7.10322">
        <ele>39</ele>
        <time>2011-07-06T10:16:26.000Z</time>
      </trkpt>
      <trkpt lat="43.66797" lon="7.10319">
        <ele>39</ele>
        <time>2011-07-06T10:16:33.000Z</time>
      </trkpt>
      <trkpt lat="43.66793" lon="7.10314">
        <ele>39.799999237061</ele>
        <time>2011-07-06T10:16:38.000Z</time>
      </trkpt>
      <trkpt lat="43.66792" lon="7.10312">
        <ele>40</ele>
        <time>2011-07-06T10:16:42.000Z</time>
      </trkpt>
      <trkpt lat="43.66787" lon="7.10306">
        <ele>40.799999237061</ele>
        <time>2011-07-06T10:16:47.000Z</time>
      </trkpt>
      <trkpt lat="43.66776" lon="7.10298">
        <ele>42</ele>
        <time>2011-07-06T10:16:53.000Z</time>
      </trkpt>
      <trkpt lat="43.66771" lon="7.10288">
        <ele>42.599998474121</ele>
        <time>2011-07-06T10:16:58.000Z</time>
      </trkpt>
      <trkpt lat="43.66764" lon="7.1028">
        <ele>43</ele>
        <time>2011-07-06T10:17:03.000Z</time>
      </trkpt>
      <trkpt lat="43.66758" lon="7.1027">
        <ele>43.200000762939</ele>
        <time>2011-07-06T10:17:09.000Z</time>
      </trkpt>
      <trkpt lat="43.66753" lon="7.10263">
        <ele>43.200000762939</ele>
        <time>2011-07-06T10:17:13.000Z</time>
      </trkpt>
      <trkpt lat="43.66747" lon="7.10247">
        <ele>43.799999237061</ele>
        <time>2011-07-06T10:17:19.000Z</time>
      </trkpt>
      <trkpt lat="43.66741" lon="7.10231">
        <ele>46.200000762939</ele>
        <time>2011-07-06T10:17:26.000Z</time>
      </trkpt>
      <trkpt lat="43.66738" lon="7.10227">
        <ele>47</ele>
        <time>2011-07-06T10:17:29.000Z</time>
      </trkpt>
      <trkpt lat="43.6673" lon="7.10225">
        <ele>48</ele>
        <time>2011-07-06T10:17:33.000Z</time>
      </trkpt>
      <trkpt lat="43.66726" lon="7.10211">
        <ele>49.799999237061</ele>
        <time>2011-07-06T10:17:39.000Z</time>
      </trkpt>
      <trkpt lat="43.66716" lon="7.102">
        <ele>51.599998474121</ele>
        <time>2011-07-06T10:17:46.000Z</time>
      </trkpt>
      <trkpt lat="43.66713" lon="7.10197">
        <ele>52.200000762939</ele>
        <time>2011-07-06T10:17:52.000Z</time>
      </trkpt>
      <trkpt lat="43.66705" lon="7.1019">
        <ele>53.400001525879</ele>
        <time>2011-07-06T10:18:02.000Z</time>
      </trkpt>
      <trkpt lat="43.66701" lon="7.10184">
        <ele>54</ele>
        <time>2011-07-06T10:18:07.000Z</time>
      </trkpt>
      <trkpt lat="43.66694" lon="7.10171">
        <ele>55</ele>
        <time>2011-07-06T10:18:14.000Z</time>
      </trkpt>
      <trkpt lat="43.66686" lon="7.1015">
        <ele>57</ele>
        <time>2011-07-06T10:18:23.000Z</time>
      </trkpt>
      <trkpt lat="43.66681" lon="7.10138">
        <ele>58</ele>
        <time>2011-07-06T10:18:28.000Z</time>
      </trkpt>
      <trkpt lat="43.6667" lon="7.10125">
        <ele>59.200000762939</ele>
        <time>2011-07-06T10:18:35.000Z</time>
      </trkpt>
      <trkpt lat="43.66659" lon="7.10121">
        <ele>60.599998474121</ele>
        <time>2011-07-06T10:18:41.000Z</time>
      </trkpt>
      <trkpt lat="43.66652" lon="7.10117">
        <ele>61.599998474121</ele>
        <time>2011-07-06T10:18:46.000Z</time>
      </trkpt>
      <trkpt lat="43.66649" lon="7.10116">
        <ele>62</ele>
        <time>2011-07-06T10:18:48.000Z</time>
      </trkpt>
      <trkpt lat="43.66642" lon="7.10112">
        <ele>63</ele>
        <time>2011-07-06T10:18:53.000Z</time>
      </trkpt>
      <trkpt lat="43.66644" lon="7.10104">
        <ele>63</ele>
        <time>2011-07-06T10:18:57.000Z</time>
      </trkpt>
      <trkpt lat="43.66646" lon="7.101">
        <ele>63</ele>
        <time>2011-07-06T10:18:59.000Z</time>
      </trkpt>
      <trkpt lat="43.6665" lon="7.10077">
        <ele>64</ele>
        <time>2011-07-06T10:19:08.000Z</time>
      </trkpt>
      <trkpt lat="43.66651" lon="7.10076">
        <ele>64.199996948242</ele>
        <time>2011-07-06T10:19:09.000Z</time>
      </trkpt>
      <trkpt lat="43.6665" lon="7.10064">
        <ele>65.599998474121</ele>
        <time>2011-07-06T10:19:15.000Z</time>
      </trkpt>
      <trkpt lat="43.66655" lon="7.10049">
        <ele>67</ele>
        <time>2011-07-06T10:19:22.000Z</time>
      </trkpt>
      <trkpt lat="43.66655" lon="7.10042">
        <ele>67.800003051758</ele>
        <time>2011-07-06T10:19:25.000Z</time>
      </trkpt>
      <trkpt lat="43.66648" lon="7.10036">
        <ele>68.800003051758</ele>
        <time>2011-07-06T10:19:31.000Z</time>
      </trkpt>
      <trkpt lat="43.66646" lon="7.10025">
        <ele>70</ele>
        <time>2011-07-06T10:19:36.000Z</time>
      </trkpt>
      <trkpt lat="43.66649" lon="7.1001">
        <ele>71.800003051758</ele>
        <time>2011-07-06T10:19:44.000Z</time>
      </trkpt>
      <trkpt lat="43.66651" lon="7.09996">
        <ele>73.400001525879</ele>
        <time>2011-07-06T10:19:51.000Z</time>
      </trkpt>
      <trkpt lat="43.66653" lon="7.09982">
        <ele>74.800003051758</ele>
        <time>2011-07-06T10:19:58.000Z</time>
      </trkpt>
      <trkpt lat="43.6665" lon="7.0997">
        <ele>75.800003051758</ele>
        <time>2011-07-06T10:20:04.000Z</time>
      </trkpt>
      <trkpt lat="43.66647" lon="7.09953">
        <ele>77.599998474121</ele>
        <time>2011-07-06T10:20:13.000Z</time>
      </trkpt>
      <trkpt lat="43.66648" lon="7.09942">
        <ele>78.599998474121</ele>
        <time>2011-07-06T10:20:19.000Z</time>
      </trkpt>
      <trkpt lat="43.66653" lon="7.09923">
        <ele>80.599998474121</ele>
        <time>2011-07-06T10:20:27.000Z</time>
      </trkpt>
      <trkpt lat="43.66653" lon="7.0992">
        <ele>80.800003051758</ele>
        <time>2011-07-06T10:20:28.000Z</time>
      </trkpt>
      <trkpt lat="43.66658" lon="7.09904">
        <ele>82</ele>
        <time>2011-07-06T10:20:35.000Z</time>
      </trkpt>
      <trkpt lat="43.66664" lon="7.09889">
        <ele>83.199996948242</ele>
        <time>2011-07-06T10:20:42.000Z</time>
      </trkpt>
      <trkpt lat="43.66663" lon="7.09874">
        <ele>83.800003051758</ele>
        <time>2011-07-06T10:20:48.000Z</time>
      </trkpt>
      <trkpt lat="43.66667" lon="7.09858">
        <ele>84.599998474121</ele>
        <time>2011-07-06T10:20:54.000Z</time>
      </trkpt>
      <trkpt lat="43.66675" lon="7.09844">
        <ele>85.199996948242</ele>
        <time>2011-07-06T10:21:01.000Z</time>
      </trkpt>
      <trkpt lat="43.66682" lon="7.09831">
        <ele>85.599998474121</ele>
        <time>2011-07-06T10:21:08.000Z</time>
      </trkpt>
      <trkpt lat="43.66688" lon="7.09817">
        <ele>85.800003051758</ele>
        <time>2011-07-06T10:21:14.000Z</time>
      </trkpt>
      <trkpt lat="43.66693" lon="7.098">
        <ele>86</ele>
        <time>2011-07-06T10:21:20.000Z</time>
      </trkpt>
      <trkpt lat="43.66692" lon="7.09779">
        <ele>86.599998474121</ele>
        <time>2011-07-06T10:21:27.000Z</time>
      </trkpt>
      <trkpt lat="43.66695" lon="7.09752">
        <ele>87.199996948242</ele>
        <time>2011-07-06T10:21:35.000Z</time>
      </trkpt>
      <trkpt lat="43.66699" lon="7.09735">
        <ele>88</ele>
        <time>2011-07-06T10:21:41.000Z</time>
      </trkpt>
      <trkpt lat="43.66702" lon="7.09731">
        <ele>88.199996948242</ele>
        <time>2011-07-06T10:21:43.000Z</time>
      </trkpt>
      <trkpt lat="43.6671" lon="7.09715">
        <ele>89.199996948242</ele>
        <time>2011-07-06T10:21:50.000Z</time>
      </trkpt>
      <trkpt lat="43.66719" lon="7.09694">
        <ele>90.599998474121</ele>
        <time>2011-07-06T10:21:57.000Z</time>
      </trkpt>
      <trkpt lat="43.66728" lon="7.09687">
        <ele>91.400001525879</ele>
        <time>2011-07-06T10:22:01.000Z</time>
      </trkpt>
      <trkpt lat="43.66732" lon="7.09674">
        <ele>92.400001525879</ele>
        <time>2011-07-06T10:22:05.000Z</time>
      </trkpt>
      <trkpt lat="43.66739" lon="7.09653">
        <ele>94.199996948242</ele>
        <time>2011-07-06T10:22:12.000Z</time>
      </trkpt>
      <trkpt lat="43.66745" lon="7.09631">
        <ele>96.199996948242</ele>
        <time>2011-07-06T10:22:19.000Z</time>
      </trkpt>
      <trkpt lat="43.66751" lon="7.09612">
        <ele>97.800003051758</ele>
        <time>2011-07-06T10:22:25.000Z</time>
      </trkpt>
      <trkpt lat="43.66756" lon="7.09598">
        <ele>98.599998474121</ele>
        <time>2011-07-06T10:22:30.000Z</time>
      </trkpt>
      <trkpt lat="43.6676" lon="7.09585">
        <ele>99.599998474121</ele>
        <time>2011-07-06T10:22:35.000Z</time>
      </trkpt>
      <trkpt lat="43.66764" lon="7.09565">
        <ele>100</ele>
        <time>2011-07-06T10:22:42.000Z</time>
      </trkpt>
      <trkpt lat="43.66769" lon="7.09547">
        <ele>100.59999847412</ele>
        <time>2011-07-06T10:22:48.000Z</time>
      </trkpt>
      <trkpt lat="43.66772" lon="7.09533">
        <ele>100.80000305176</ele>
        <time>2011-07-06T10:22:53.000Z</time>
      </trkpt>
      <trkpt lat="43.66774" lon="7.09517">
        <ele>101.40000152588</ele>
        <time>2011-07-06T10:22:59.000Z</time>
      </trkpt>
      <trkpt lat="43.66768" lon="7.09507">
        <ele>101.59999847412</ele>
        <time>2011-07-06T10:23:04.000Z</time>
      </trkpt>
      <trkpt lat="43.66757" lon="7.09504">
        <ele>101.80000305176</ele>
        <time>2011-07-06T10:23:10.000Z</time>
      </trkpt>
      <trkpt lat="43.6674" lon="7.09495">
        <ele>101.40000152588</ele>
        <time>2011-07-06T10:23:17.000Z</time>
      </trkpt>
      <trkpt lat="43.6674" lon="7.09485">
        <ele>101.19999694824</ele>
        <time>2011-07-06T10:23:21.000Z</time>
      </trkpt>
      <trkpt lat="43.66745" lon="7.09473">
        <ele>101</ele>
        <time>2011-07-06T10:23:24.000Z</time>
      </trkpt>
      <trkpt lat="43.6674" lon="7.09459">
        <ele>100.59999847412</ele>
        <time>2011-07-06T10:23:28.000Z</time>
      </trkpt>
      <trkpt lat="43.66727" lon="7.09452">
        <ele>100</ele>
        <time>2011-07-06T10:23:33.000Z</time>
      </trkpt>
      <trkpt lat="43.66703" lon="7.09437">
        <ele>99.199996948242</ele>
        <time>2011-07-06T10:23:43.000Z</time>
      </trkpt>
      <trkpt lat="43.66686" lon="7.09426">
        <ele>98.599998474121</ele>
        <time>2011-07-06T10:23:49.000Z</time>
      </trkpt>
      <trkpt lat="43.66667" lon="7.0941">
        <ele>98.400001525879</ele>
        <time>2011-07-06T10:23:56.000Z</time>
      </trkpt>
      <trkpt lat="43.66648" lon="7.09391">
        <ele>99.199996948242</ele>
        <time>2011-07-06T10:24:03.000Z</time>
      </trkpt>
      <trkpt lat="43.66627" lon="7.09375">
        <ele>99.400001525879</ele>
        <time>2011-07-06T10:24:11.000Z</time>
      </trkpt>
      <trkpt lat="43.66615" lon="7.09357">
        <ele>100</ele>
        <time>2011-07-06T10:24:17.000Z</time>
      </trkpt>
      <trkpt lat="43.66608" lon="7.09341">
        <ele>100.59999847412</ele>
        <time>2011-07-06T10:24:22.000Z</time>
      </trkpt>
      <trkpt lat="43.66611" lon="7.09329">
        <ele>101.40000152588</ele>
        <time>2011-07-06T10:24:26.000Z</time>
      </trkpt>
      <trkpt lat="43.66615" lon="7.09319">
        <ele>102.19999694824</ele>
        <time>2011-07-06T10:24:33.000Z</time>
      </trkpt>
      <trkpt lat="43.66616" lon="7.09317">
        <ele>102.40000152588</ele>
        <time>2011-07-06T10:24:39.000Z</time>
      </trkpt>
      <trkpt lat="43.66622" lon="7.09303">
        <ele>103.59999847412</ele>
        <time>2011-07-06T10:24:45.000Z</time>
      </trkpt>
      <trkpt lat="43.66632" lon="7.09288">
        <ele>105.19999694824</ele>
        <time>2011-07-06T10:24:52.000Z</time>
      </trkpt>
      <trkpt lat="43.66645" lon="7.0927">
        <ele>107.80000305176</ele>
        <time>2011-07-06T10:25:00.000Z</time>
      </trkpt>
      <trkpt lat="43.66653" lon="7.09251">
        <ele>110.19999694824</ele>
        <time>2011-07-06T10:25:07.000Z</time>
      </trkpt>
      <trkpt lat="43.66662" lon="7.09226">
        <ele>112.59999847412</ele>
        <time>2011-07-06T10:25:16.000Z</time>
      </trkpt>
      <trkpt lat="43.66668" lon="7.09206">
        <ele>114.80000305176</ele>
        <time>2011-07-06T10:25:23.000Z</time>
      </trkpt>
      <trkpt lat="43.66677" lon="7.09187">
        <ele>117.40000152588</ele>
        <time>2011-07-06T10:25:30.000Z</time>
      </trkpt>
      <trkpt lat="43.66692" lon="7.0917">
        <ele>121</ele>
        <time>2011-07-06T10:25:38.000Z</time>
      </trkpt>
      <trkpt lat="43.66709" lon="7.09157">
        <ele>124</ele>
        <time>2011-07-06T10:25:45.000Z</time>
      </trkpt>
      <trkpt lat="43.66715" lon="7.09147">
        <ele>125</ele>
        <time>2011-07-06T10:25:49.000Z</time>
      </trkpt>
      <trkpt lat="43.66721" lon="7.09132">
        <ele>126</ele>
        <time>2011-07-06T10:25:55.000Z</time>
      </trkpt>
      <trkpt lat="43.66725" lon="7.09103">
        <ele>127</ele>
        <time>2011-07-06T10:26:04.000Z</time>
      </trkpt>
      <trkpt lat="43.66726" lon="7.09076">
        <ele>127.19999694824</ele>
        <time>2011-07-06T10:26:12.000Z</time>
      </trkpt>
      <trkpt lat="43.66734" lon="7.09052">
        <ele>128.19999694824</ele>
        <time>2011-07-06T10:26:20.000Z</time>
      </trkpt>
      <trkpt lat="43.66743" lon="7.09036">
        <ele>129.60000610352</ele>
        <time>2011-07-06T10:26:26.000Z</time>
      </trkpt>
      <trkpt lat="43.66752" lon="7.09021">
        <ele>130.60000610352</ele>
        <time>2011-07-06T10:26:32.000Z</time>
      </trkpt>
      <trkpt lat="43.6677" lon="7.09008">
        <ele>132.19999694824</ele>
        <time>2011-07-06T10:26:41.000Z</time>
      </trkpt>
      <trkpt lat="43.66784" lon="7.09004">
        <ele>133.60000610352</ele>
        <time>2011-07-06T10:26:47.000Z</time>
      </trkpt>
      <trkpt lat="43.66799" lon="7.08996">
        <ele>135.19999694824</ele>
        <time>2011-07-06T10:26:53.000Z</time>
      </trkpt>
      <trkpt lat="43.66817" lon="7.08988">
        <ele>137.19999694824</ele>
        <time>2011-07-06T10:27:01.000Z</time>
      </trkpt>
      <trkpt lat="43.66833" lon="7.08984">
        <ele>138.80000305176</ele>
        <time>2011-07-06T10:27:08.000Z</time>
      </trkpt>
      <trkpt lat="43.66848" lon="7.08973">
        <ele>138.80000305176</ele>
        <time>2011-07-06T10:27:15.000Z</time>
      </trkpt>
      <trkpt lat="43.66851" lon="7.08968">
        <ele>138.80000305176</ele>
        <time>2011-07-06T10:27:17.000Z</time>
      </trkpt>
      <trkpt lat="43.6686" lon="7.08949">
        <ele>139.39999389648</ele>
        <time>2011-07-06T10:27:24.000Z</time>
      </trkpt>
      <trkpt lat="43.66871" lon="7.08944">
        <ele>139.60000610352</ele>
        <time>2011-07-06T10:27:29.000Z</time>
      </trkpt>
      <trkpt lat="43.66879" lon="7.08929">
        <ele>140.60000610352</ele>
        <time>2011-07-06T10:27:35.000Z</time>
      </trkpt>
      <trkpt lat="43.66887" lon="7.08905">
        <ele>142.80000305176</ele>
        <time>2011-07-06T10:27:43.000Z</time>
      </trkpt>
      <trkpt lat="43.66898" lon="7.08882">
        <ele>145.39999389648</ele>
        <time>2011-07-06T10:27:49.000Z</time>
      </trkpt>
      <trkpt lat="43.66912" lon="7.08855">
        <ele>148.60000610352</ele>
        <time>2011-07-06T10:27:56.000Z</time>
      </trkpt>
      <trkpt lat="43.66919" lon="7.08833">
        <ele>150.80000305176</ele>
        <time>2011-07-06T10:28:01.000Z</time>
      </trkpt>
      <trkpt lat="43.66921" lon="7.08805">
        <ele>153.19999694824</ele>
        <time>2011-07-06T10:28:07.000Z</time>
      </trkpt>
      <trkpt lat="43.66925" lon="7.08778">
        <ele>155.19999694824</ele>
        <time>2011-07-06T10:28:13.000Z</time>
      </trkpt>
      <trkpt lat="43.66931" lon="7.08755">
        <ele>156.60000610352</ele>
        <time>2011-07-06T10:28:18.000Z</time>
      </trkpt>
      <trkpt lat="43.66942" lon="7.08726">
        <ele>156.80000305176</ele>
        <time>2011-07-06T10:28:24.000Z</time>
      </trkpt>
      <trkpt lat="43.66953" lon="7.08708">
        <ele>156</ele>
        <time>2011-07-06T10:28:27.000Z</time>
      </trkpt>
      <trkpt lat="43.6698" lon="7.08702">
        <ele>152</ele>
        <time>2011-07-06T10:28:32.000Z</time>
      </trkpt>
      <trkpt lat="43.66993" lon="7.08709">
        <ele>150</ele>
        <time>2011-07-06T10:28:34.000Z</time>
      </trkpt>
      <trkpt lat="43.67026" lon="7.0873">
        <ele>148.60000610352</ele>
        <time>2011-07-06T10:28:40.000Z</time>
      </trkpt>
      <trkpt lat="43.67045" lon="7.08735">
        <ele>148.80000305176</ele>
        <time>2011-07-06T10:28:44.000Z</time>
      </trkpt>
      <trkpt lat="43.67053" lon="7.08739">
        <ele>149</ele>
        <time>2011-07-06T10:28:46.000Z</time>
      </trkpt>
      <trkpt lat="43.67064" lon="7.08746">
        <ele>149.39999389648</ele>
        <time>2011-07-06T10:28:49.000Z</time>
      </trkpt>
      <trkpt lat="43.6708" lon="7.08755">
        <ele>149.60000610352</ele>
        <time>2011-07-06T10:28:55.000Z</time>
      </trkpt>
      <trkpt lat="43.67098" lon="7.08769">
        <ele>150.60000610352</ele>
        <time>2011-07-06T10:29:01.000Z</time>
      </trkpt>
      <trkpt lat="43.67109" lon="7.08777">
        <ele>151.19999694824</ele>
        <time>2011-07-06T10:29:05.000Z</time>
      </trkpt>
      <trkpt lat="43.67124" lon="7.08793">
        <ele>152.19999694824</ele>
        <time>2011-07-06T10:29:11.000Z</time>
      </trkpt>
      <trkpt lat="43.67136" lon="7.08808">
        <ele>153</ele>
        <time>2011-07-06T10:29:16.000Z</time>
      </trkpt>
      <trkpt lat="43.67143" lon="7.08821">
        <ele>153.60000610352</ele>
        <time>2011-07-06T10:29:20.000Z</time>
      </trkpt>
      <trkpt lat="43.67152" lon="7.08841">
        <ele>154</ele>
        <time>2011-07-06T10:29:25.000Z</time>
      </trkpt>
      <trkpt lat="43.67167" lon="7.08871">
        <ele>153.60000610352</ele>
        <time>2011-07-06T10:29:32.000Z</time>
      </trkpt>
      <trkpt lat="43.67175" lon="7.08883">
        <ele>153.19999694824</ele>
        <time>2011-07-06T10:29:36.000Z</time>
      </trkpt>
      <trkpt lat="43.67181" lon="7.089">
        <ele>152.39999389648</ele>
        <time>2011-07-06T10:29:40.000Z</time>
      </trkpt>
      <trkpt lat="43.67189" lon="7.08936">
        <ele>149.80000305176</ele>
        <time>2011-07-06T10:29:46.000Z</time>
      </trkpt>
      <trkpt lat="43.67201" lon="7.08949">
        <ele>148.39999389648</ele>
        <time>2011-07-06T10:29:51.000Z</time>
      </trkpt>
      <trkpt lat="43.67203" lon="7.0895">
        <ele>148.39999389648</ele>
        <time>2011-07-06T10:29:54.000Z</time>
      </trkpt>
      <trkpt lat="43.67203" lon="7.08952">
        <ele>148.19999694824</ele>
        <time>2011-07-06T10:29:56.000Z</time>
      </trkpt>
      <trkpt lat="43.67204" lon="7.08953">
        <ele>148</ele>
        <time>2011-07-06T10:29:58.000Z</time>
      </trkpt>
      <trkpt lat="43.67209" lon="7.08963">
        <ele>146.80000305176</ele>
        <time>2011-07-06T10:30:05.000Z</time>
      </trkpt>
      <trkpt lat="43.67216" lon="7.0898">
        <ele>144.80000305176</ele>
        <time>2011-07-06T10:30:10.000Z</time>
      </trkpt>
      <trkpt lat="43.67224" lon="7.09002">
        <ele>142</ele>
        <time>2011-07-06T10:30:14.000Z</time>
      </trkpt>
      <trkpt lat="43.67224" lon="7.09029">
        <ele>138.80000305176</ele>
        <time>2011-07-06T10:30:18.000Z</time>
      </trkpt>
      <trkpt lat="43.67231" lon="7.09061">
        <ele>134.39999389648</ele>
        <time>2011-07-06T10:30:23.000Z</time>
      </trkpt>
      <trkpt lat="43.67236" lon="7.09082">
        <ele>131.39999389648</ele>
        <time>2011-07-06T10:30:26.000Z</time>
      </trkpt>
      <trkpt lat="43.67241" lon="7.09095">
        <ele>129.60000610352</ele>
        <time>2011-07-06T10:30:28.000Z</time>
      </trkpt>
      <trkpt lat="43.67257" lon="7.09111">
        <ele>126.59999847412</ele>
        <time>2011-07-06T10:30:32.000Z</time>
      </trkpt>
      <trkpt lat="43.67268" lon="7.09135">
        <ele>123.80000305176</ele>
        <time>2011-07-06T10:30:38.000Z</time>
      </trkpt>
      <trkpt lat="43.67273" lon="7.09141">
        <ele>122.80000305176</ele>
        <time>2011-07-06T10:30:41.000Z</time>
      </trkpt>
      <trkpt lat="43.67283" lon="7.09142">
        <ele>122.19999694824</ele>
        <time>2011-07-06T10:30:44.000Z</time>
      </trkpt>
      <trkpt lat="43.673" lon="7.09151">
        <ele>120.40000152588</ele>
        <time>2011-07-06T10:30:49.000Z</time>
      </trkpt>
      <trkpt lat="43.67309" lon="7.09147">
        <ele>120.19999694824</ele>
        <time>2011-07-06T10:30:53.000Z</time>
      </trkpt>
      <trkpt lat="43.67311" lon="7.09145">
        <ele>120</ele>
        <time>2011-07-06T10:30:55.000Z</time>
      </trkpt>
      <trkpt lat="43.67315" lon="7.09144">
        <ele>120</ele>
        <time>2011-07-06T10:31:09.000Z</time>
      </trkpt>
      <trkpt lat="43.67316" lon="7.09144">
        <ele>119.80000305176</ele>
        <time>2011-07-06T10:31:25.000Z</time>
      </trkpt>
      <trkpt lat="43.67319" lon="7.09141">
        <ele>119.80000305176</ele>
        <time>2011-07-06T10:31:36.000Z</time>
      </trkpt>
      <trkpt lat="43.67331" lon="7.09127">
        <ele>119.40000152588</ele>
        <time>2011-07-06T10:31:42.000Z</time>
      </trkpt>
      <trkpt lat="43.67348" lon="7.09106">
        <ele>120</ele>
        <time>2011-07-06T10:31:48.000Z</time>
      </trkpt>
      <trkpt lat="43.67367" lon="7.09084">
        <ele>120.40000152588</ele>
        <time>2011-07-06T10:31:54.000Z</time>
      </trkpt>
      <trkpt lat="43.67373" lon="7.09072">
        <ele>121</ele>
        <time>2011-07-06T10:31:58.000Z</time>
      </trkpt>
      <trkpt lat="43.67374" lon="7.09069">
        <ele>121</ele>
        <time>2011-07-06T10:31:59.000Z</time>
      </trkpt>
      <trkpt lat="43.67385" lon="7.0905">
        <ele>121.40000152588</ele>
        <time>2011-07-06T10:32:05.000Z</time>
      </trkpt>
      <trkpt lat="43.6739" lon="7.09046">
        <ele>121.40000152588</ele>
        <time>2011-07-06T10:32:07.000Z</time>
      </trkpt>
      <trkpt lat="43.67409" lon="7.09035">
        <ele>120.80000305176</ele>
        <time>2011-07-06T10:32:14.000Z</time>
      </trkpt>
      <trkpt lat="43.67418" lon="7.09019">
        <ele>120.80000305176</ele>
        <time>2011-07-06T10:32:19.000Z</time>
      </trkpt>
      <trkpt lat="43.67419" lon="7.09017">
        <ele>120.80000305176</ele>
        <time>2011-07-06T10:32:20.000Z</time>
      </trkpt>
      <trkpt lat="43.67423" lon="7.09017">
        <ele>120.80000305176</ele>
        <time>2011-07-06T10:32:26.000Z</time>
      </trkpt>
      <trkpt lat="43.67429" lon="7.09032">
        <ele>120.80000305176</ele>
        <time>2011-07-06T10:32:33.000Z</time>
      </trkpt>
      <trkpt lat="43.67433" lon="7.09044">
        <ele>120.80000305176</ele>
        <time>2011-07-06T10:32:38.000Z</time>
      </trkpt>
      <trkpt lat="43.67434" lon="7.09045">
        <ele>120.80000305176</ele>
        <time>2011-07-06T10:32:43.000Z</time>
      </trkpt>
      <trkpt lat="43.67433" lon="7.09046">
        <ele>120.80000305176</ele>
        <time>2011-07-06T10:32:49.000Z</time>
      </trkpt>
      <trkpt lat="43.67431" lon="7.09042">
        <ele>120.80000305176</ele>
        <time>2011-07-06T10:32:54.000Z</time>
      </trkpt>
      <trkpt lat="43.67432" lon="7.09039">
        <ele>120.80000305176</ele>
        <time>2011-07-06T10:32:57.000Z</time>
      </trkpt>
      <trkpt lat="43.67421" lon="7.09017">
        <ele>120.80000305176</ele>
        <time>2011-07-06T10:33:04.000Z</time>
      </trkpt>
      <trkpt lat="43.67416" lon="7.09005">
        <ele>120.80000305176</ele>
        <time>2011-07-06T10:33:09.000Z</time>
      </trkpt>
      <trkpt lat="43.67421" lon="7.08999">
        <ele>121</ele>
        <time>2011-07-06T10:33:14.000Z</time>
      </trkpt>
      <trkpt lat="43.67424" lon="7.08995">
        <ele>121.19999694824</ele>
        <time>2011-07-06T10:33:16.000Z</time>
      </trkpt>
      <trkpt lat="43.67431" lon="7.08996">
        <ele>121.40000152588</ele>
        <time>2011-07-06T10:33:20.000Z</time>
      </trkpt>
      <trkpt lat="43.67436" lon="7.0899">
        <ele>121.80000305176</ele>
        <time>2011-07-06T10:33:25.000Z</time>
      </trkpt>
      <trkpt lat="43.67439" lon="7.08977">
        <ele>122.19999694824</ele>
        <time>2011-07-06T10:33:30.000Z</time>
      </trkpt>
      <trkpt lat="43.67443" lon="7.08964">
        <ele>122.40000152588</ele>
        <time>2011-07-06T10:33:34.000Z</time>
      </trkpt>
      <trkpt lat="43.67447" lon="7.08947">
        <ele>122.80000305176</ele>
        <time>2011-07-06T10:33:40.000Z</time>
      </trkpt>
      <trkpt lat="43.67449" lon="7.08937">
        <ele>123</ele>
        <time>2011-07-06T10:33:44.000Z</time>
      </trkpt>
      <trkpt lat="43.67449" lon="7.08917">
        <ele>123.19999694824</ele>
        <time>2011-07-06T10:33:50.000Z</time>
      </trkpt>
      <trkpt lat="43.67449" lon="7.08897">
        <ele>122.80000305176</ele>
        <time>2011-07-06T10:33:55.000Z</time>
      </trkpt>
      <trkpt lat="43.67453" lon="7.08879">
        <ele>122.40000152588</ele>
        <time>2011-07-06T10:34:00.000Z</time>
      </trkpt>
      <trkpt lat="43.67454" lon="7.08865">
        <ele>121.80000305176</ele>
        <time>2011-07-06T10:34:03.000Z</time>
      </trkpt>
      <trkpt lat="43.6746" lon="7.08831">
        <ele>120.80000305176</ele>
        <time>2011-07-06T10:34:09.000Z</time>
      </trkpt>
      <trkpt lat="43.67466" lon="7.08817">
        <ele>119.40000152588</ele>
        <time>2011-07-06T10:34:12.000Z</time>
      </trkpt>
      <trkpt lat="43.67471" lon="7.08805">
        <ele>118.19999694824</ele>
        <time>2011-07-06T10:34:16.000Z</time>
      </trkpt>
      <trkpt lat="43.67472" lon="7.08805">
        <ele>118.19999694824</ele>
        <time>2011-07-06T10:34:17.000Z</time>
      </trkpt>
      <trkpt lat="43.67477" lon="7.08807">
        <ele>118.19999694824</ele>
        <time>2011-07-06T10:34:23.000Z</time>
      </trkpt>
      <trkpt lat="43.67482" lon="7.08807">
        <ele>118</ele>
        <time>2011-07-06T10:34:28.000Z</time>
      </trkpt>
      <trkpt lat="43.67485" lon="7.08804">
        <ele>117.59999847412</ele>
        <time>2011-07-06T10:34:30.000Z</time>
      </trkpt>
      <trkpt lat="43.67483" lon="7.08796">
        <ele>117</ele>
        <time>2011-07-06T10:34:36.000Z</time>
      </trkpt>
      <trkpt lat="43.67485" lon="7.08791">
        <ele>116.40000152588</ele>
        <time>2011-07-06T10:34:40.000Z</time>
      </trkpt>
      <trkpt lat="43.67489" lon="7.0879">
        <ele>116.19999694824</ele>
        <time>2011-07-06T10:34:47.000Z</time>
      </trkpt>
      <trkpt lat="43.67491" lon="7.08788">
        <ele>116</ele>
        <time>2011-07-06T10:34:49.000Z</time>
      </trkpt>
      <trkpt lat="43.67496" lon="7.08784">
        <ele>115.40000152588</ele>
        <time>2011-07-06T10:34:53.000Z</time>
      </trkpt>
      <trkpt lat="43.67508" lon="7.08785">
        <ele>115.19999694824</ele>
        <time>2011-07-06T10:34:59.000Z</time>
      </trkpt>
      <trkpt lat="43.67523" lon="7.08784">
        <ele>115</ele>
        <time>2011-07-06T10:35:06.000Z</time>
      </trkpt>
      <trkpt lat="43.6753" lon="7.08771">
        <ele>113.59999847412</ele>
        <time>2011-07-06T10:35:11.000Z</time>
      </trkpt>
      <trkpt lat="43.67528" lon="7.08744">
        <ele>111.19999694824</ele>
        <time>2011-07-06T10:35:17.000Z</time>
      </trkpt>
      <trkpt lat="43.6753" lon="7.08734">
        <ele>110.80000305176</ele>
        <time>2011-07-06T10:35:20.000Z</time>
      </trkpt>
      <trkpt lat="43.67531" lon="7.08735">
        <ele>110.80000305176</ele>
        <time>2011-07-06T10:35:22.000Z</time>
      </trkpt>
      <trkpt lat="43.6754" lon="7.08733">
        <ele>110.59999847412</ele>
        <time>2011-07-06T10:35:27.000Z</time>
      </trkpt>
      <trkpt lat="43.67552" lon="7.08731">
        <ele>110.40000152588</ele>
        <time>2011-07-06T10:35:31.000Z</time>
      </trkpt>
      <trkpt lat="43.67561" lon="7.08713">
        <ele>109.80000305176</ele>
        <time>2011-07-06T10:35:36.000Z</time>
      </trkpt>
      <trkpt lat="43.67561" lon="7.087">
        <ele>109.19999694824</ele>
        <time>2011-07-06T10:35:39.000Z</time>
      </trkpt>
      <trkpt lat="43.67562" lon="7.08681">
        <ele>108.40000152588</ele>
        <time>2011-07-06T10:35:45.000Z</time>
      </trkpt>
      <trkpt lat="43.67552" lon="7.08668">
        <ele>108</ele>
        <time>2011-07-06T10:35:50.000Z</time>
      </trkpt>
      <trkpt lat="43.67546" lon="7.0866">
        <ele>108.19999694824</ele>
        <time>2011-07-06T10:35:53.000Z</time>
      </trkpt>
      <trkpt lat="43.67533" lon="7.08652">
        <ele>108.59999847412</ele>
        <time>2011-07-06T10:35:57.000Z</time>
      </trkpt>
      <trkpt lat="43.67531" lon="7.08636">
        <ele>109.59999847412</ele>
        <time>2011-07-06T10:36:01.000Z</time>
      </trkpt>
      <trkpt lat="43.67536" lon="7.08623">
        <ele>110</ele>
        <time>2011-07-06T10:36:06.000Z</time>
      </trkpt>
      <trkpt lat="43.67539" lon="7.08618">
        <ele>110</ele>
        <time>2011-07-06T10:36:10.000Z</time>
      </trkpt>
      <trkpt lat="43.6755" lon="7.08613">
        <ele>109.80000305176</ele>
        <time>2011-07-06T10:36:18.000Z</time>
      </trkpt>
      <trkpt lat="43.67559" lon="7.08612">
        <ele>109.19999694824</ele>
        <time>2011-07-06T10:36:22.000Z</time>
      </trkpt>
      <trkpt lat="43.67583" lon="7.08611">
        <ele>108</ele>
        <time>2011-07-06T10:36:29.000Z</time>
      </trkpt>
      <trkpt lat="43.676" lon="7.0862">
        <ele>105.80000305176</ele>
        <time>2011-07-06T10:36:33.000Z</time>
      </trkpt>
      <trkpt lat="43.67604" lon="7.08622">
        <ele>105.40000152588</ele>
        <time>2011-07-06T10:36:34.000Z</time>
      </trkpt>
      <trkpt lat="43.67612" lon="7.08627">
        <ele>104.40000152588</ele>
        <time>2011-07-06T10:36:36.000Z</time>
      </trkpt>
      <trkpt lat="43.6763" lon="7.08625">
        <ele>102.40000152588</ele>
        <time>2011-07-06T10:36:41.000Z</time>
      </trkpt>
      <trkpt lat="43.67641" lon="7.0862">
        <ele>100.80000305176</ele>
        <time>2011-07-06T10:36:44.000Z</time>
      </trkpt>
      <trkpt lat="43.67643" lon="7.0861">
        <ele>100.40000152588</ele>
        <time>2011-07-06T10:36:48.000Z</time>
      </trkpt>
      <trkpt lat="43.67642" lon="7.08603">
        <ele>100.40000152588</ele>
        <time>2011-07-06T10:36:53.000Z</time>
      </trkpt>
      <trkpt lat="43.67646" lon="7.08595">
        <ele>99.800003051758</ele>
        <time>2011-07-06T10:36:59.000Z</time>
      </trkpt>
      <trkpt lat="43.67648" lon="7.08594">
        <ele>99.599998474121</ele>
        <time>2011-07-06T10:37:05.000Z</time>
      </trkpt>
      <trkpt lat="43.67651" lon="7.08593">
        <ele>99.199996948242</ele>
        <time>2011-07-06T10:37:11.000Z</time>
      </trkpt>
      <trkpt lat="43.67661" lon="7.08592">
        <ele>97.800003051758</ele>
        <time>2011-07-06T10:37:16.000Z</time>
      </trkpt>
      <trkpt lat="43.67676" lon="7.08589">
        <ele>96</ele>
        <time>2011-07-06T10:37:19.000Z</time>
      </trkpt>
      <trkpt lat="43.67695" lon="7.08582">
        <ele>94</ele>
        <time>2011-07-06T10:37:23.000Z</time>
      </trkpt>
      <trkpt lat="43.67712" lon="7.08573">
        <ele>93.800003051758</ele>
        <time>2011-07-06T10:37:27.000Z</time>
      </trkpt>
      <trkpt lat="43.67729" lon="7.08562">
        <ele>93.800003051758</ele>
        <time>2011-07-06T10:37:31.000Z</time>
      </trkpt>
      <trkpt lat="43.67742" lon="7.08555">
        <ele>93.400001525879</ele>
        <time>2011-07-06T10:37:34.000Z</time>
      </trkpt>
      <trkpt lat="43.67753" lon="7.08544">
        <ele>93.599998474121</ele>
        <time>2011-07-06T10:37:37.000Z</time>
      </trkpt>
      <trkpt lat="43.67765" lon="7.08535">
        <ele>93.199996948242</ele>
        <time>2011-07-06T10:37:40.000Z</time>
      </trkpt>
      <trkpt lat="43.67783" lon="7.08525">
        <ele>92</ele>
        <time>2011-07-06T10:37:44.000Z</time>
      </trkpt>
      <trkpt lat="43.67797" lon="7.08522">
        <ele>90.400001525879</ele>
        <time>2011-07-06T10:37:47.000Z</time>
      </trkpt>
      <trkpt lat="43.67818" lon="7.08519">
        <ele>87.599998474121</ele>
        <time>2011-07-06T10:37:52.000Z</time>
      </trkpt>
      <trkpt lat="43.67833" lon="7.0852">
        <ele>85</ele>
        <time>2011-07-06T10:37:55.000Z</time>
      </trkpt>
      <trkpt lat="43.67861" lon="7.08524">
        <ele>84.199996948242</ele>
        <time>2011-07-06T10:38:01.000Z</time>
      </trkpt>
      <trkpt lat="43.67864" lon="7.08524">
        <ele>84</ele>
        <time>2011-07-06T10:38:02.000Z</time>
      </trkpt>
      <trkpt lat="43.67877" lon="7.08519">
        <ele>84.400001525879</ele>
        <time>2011-07-06T10:38:07.000Z</time>
      </trkpt>
      <trkpt lat="43.67888" lon="7.08517">
        <ele>84.599998474121</ele>
        <time>2011-07-06T10:38:11.000Z</time>
      </trkpt>
      <trkpt lat="43.67894" lon="7.08518">
        <ele>84.199996948242</ele>
        <time>2011-07-06T10:38:13.000Z</time>
      </trkpt>
      <trkpt lat="43.67901" lon="7.0852">
        <ele>84</ele>
        <time>2011-07-06T10:38:15.000Z</time>
      </trkpt>
      <trkpt lat="43.67917" lon="7.08526">
        <ele>83.199996948242</ele>
        <time>2011-07-06T10:38:20.000Z</time>
      </trkpt>
      <trkpt lat="43.67923" lon="7.0853">
        <ele>82.199996948242</ele>
        <time>2011-07-06T10:38:22.000Z</time>
      </trkpt>
      <trkpt lat="43.67937" lon="7.08536">
        <ele>80.800003051758</ele>
        <time>2011-07-06T10:38:28.000Z</time>
      </trkpt>
      <trkpt lat="43.67944" lon="7.08532">
        <ele>80.800003051758</ele>
        <time>2011-07-06T10:38:33.000Z</time>
      </trkpt>
      <trkpt lat="43.67948" lon="7.08525">
        <ele>81</ele>
        <time>2011-07-06T10:38:40.000Z</time>
      </trkpt>
      <trkpt lat="43.67951" lon="7.08524">
        <ele>80.800003051758</ele>
        <time>2011-07-06T10:38:48.000Z</time>
      </trkpt>
      <trkpt lat="43.6796" lon="7.08513">
        <ele>80.599998474121</ele>
        <time>2011-07-06T10:38:54.000Z</time>
      </trkpt>
      <trkpt lat="43.6796" lon="7.08511">
        <ele>80.800003051758</ele>
        <time>2011-07-06T10:38:55.000Z</time>
      </trkpt>
      <trkpt lat="43.67972" lon="7.08501">
        <ele>80</ele>
        <time>2011-07-06T10:39:00.000Z</time>
      </trkpt>
      <trkpt lat="43.67978" lon="7.08496">
        <ele>78.599998474121</ele>
        <time>2011-07-06T10:39:04.000Z</time>
      </trkpt>
      <trkpt lat="43.67978" lon="7.08495">
        <ele>78.400001525879</ele>
        <time>2011-07-06T10:39:05.000Z</time>
      </trkpt>
      <trkpt lat="43.67979" lon="7.08493">
        <ele>77.800003051758</ele>
        <time>2011-07-06T10:39:07.000Z</time>
      </trkpt>
      <trkpt lat="43.67976" lon="7.08487">
        <ele>77.199996948242</ele>
        <time>2011-07-06T10:39:11.000Z</time>
      </trkpt>
      <trkpt lat="43.67973" lon="7.08488">
        <ele>77.800003051758</ele>
        <time>2011-07-06T10:39:17.000Z</time>
      </trkpt>
      <trkpt lat="43.6797" lon="7.08486">
        <ele>78</ele>
        <time>2011-07-06T10:39:22.000Z</time>
      </trkpt>
      <trkpt lat="43.6797" lon="7.08485">
        <ele>77.800003051758</ele>
        <time>2011-07-06T10:39:24.000Z</time>
      </trkpt>
      <trkpt lat="43.67963" lon="7.08468">
        <ele>76.599998474121</ele>
        <time>2011-07-06T10:39:32.000Z</time>
      </trkpt>
      <trkpt lat="43.6796" lon="7.08463">
        <ele>76.599998474121</ele>
        <time>2011-07-06T10:39:37.000Z</time>
      </trkpt>
      <trkpt lat="43.67958" lon="7.08461">
        <ele>76.800003051758</ele>
        <time>2011-07-06T10:39:41.000Z</time>
      </trkpt>
      <trkpt lat="43.67958" lon="7.08461">
        <ele>76.800003051758</ele>
        <time>2011-07-06T10:39:51.000Z</time>
      </trkpt>
      <trkpt lat="43.67955" lon="7.0846">
        <ele>77.400001525879</ele>
        <time>2011-07-06T10:39:56.000Z</time>
      </trkpt>
      <trkpt lat="43.67947" lon="7.08458">
        <ele>79</ele>
        <time>2011-07-06T10:40:01.000Z</time>
      </trkpt>
      <trkpt lat="43.67937" lon="7.08456">
        <ele>81.400001525879</ele>
        <time>2011-07-06T10:40:05.000Z</time>
      </trkpt>
      <trkpt lat="43.67926" lon="7.08459">
        <ele>84.199996948242</ele>
        <time>2011-07-06T10:40:10.000Z</time>
      </trkpt>
      <trkpt lat="43.67917" lon="7.08461">
        <ele>86.400001525879</ele>
        <time>2011-07-06T10:40:14.000Z</time>
      </trkpt>
      <trkpt lat="43.67908" lon="7.08449">
        <ele>87.599998474121</ele>
        <time>2011-07-06T10:40:19.000Z</time>
      </trkpt>
      <trkpt lat="43.67899" lon="7.08438">
        <ele>89.400001525879</ele>
        <time>2011-07-06T10:40:23.000Z</time>
      </trkpt>
      <trkpt lat="43.67897" lon="7.08433">
        <ele>90</ele>
        <time>2011-07-06T10:40:24.000Z</time>
      </trkpt>
      <trkpt lat="43.67894" lon="7.08408">
        <ele>90.800003051758</ele>
        <time>2011-07-06T10:40:29.000Z</time>
      </trkpt>
      <trkpt lat="43.67895" lon="7.08403">
        <ele>90.199996948242</ele>
        <time>2011-07-06T10:40:30.000Z</time>
      </trkpt>
      <trkpt lat="43.67887" lon="7.08383">
        <ele>90.400001525879</ele>
        <time>2011-07-06T10:40:35.000Z</time>
      </trkpt>
      <trkpt lat="43.67885" lon="7.08377">
        <ele>90.599998474121</ele>
        <time>2011-07-06T10:40:37.000Z</time>
      </trkpt>
      <trkpt lat="43.67881" lon="7.08373">
        <ele>91.599998474121</ele>
        <time>2011-07-06T10:40:39.000Z</time>
      </trkpt>
      <trkpt lat="43.67879" lon="7.08355">
        <ele>91</ele>
        <time>2011-07-06T10:40:44.000Z</time>
      </trkpt>
      <trkpt lat="43.67878" lon="7.0835">
        <ele>91</ele>
        <time>2011-07-06T10:40:45.000Z</time>
      </trkpt>
      <trkpt lat="43.67871" lon="7.08327">
        <ele>92.599998474121</ele>
        <time>2011-07-06T10:40:50.000Z</time>
      </trkpt>
      <trkpt lat="43.67869" lon="7.08321">
        <ele>93.199996948242</ele>
        <time>2011-07-06T10:40:52.000Z</time>
      </trkpt>
      <trkpt lat="43.67866" lon="7.08323">
        <ele>94.599998474121</ele>
        <time>2011-07-06T10:40:58.000Z</time>
      </trkpt>
      <trkpt lat="43.67866" lon="7.08329">
        <ele>94.800003051758</ele>
        <time>2011-07-06T10:41:01.000Z</time>
      </trkpt>
      <trkpt lat="43.67866" lon="7.08332">
        <ele>95</ele>
        <time>2011-07-06T10:41:07.000Z</time>
      </trkpt>
      <trkpt lat="43.67866" lon="7.08329">
        <ele>94.599998474121</ele>
        <time>2011-07-06T10:41:13.000Z</time>
      </trkpt>
      <trkpt lat="43.67866" lon="7.08328">
        <ele>94.800003051758</ele>
        <time>2011-07-06T10:41:35.000Z</time>
      </trkpt>
      <trkpt lat="43.67867" lon="7.08331">
        <ele>94.400001525879</ele>
        <time>2011-07-06T10:41:55.000Z</time>
      </trkpt>
      <trkpt lat="43.67863" lon="7.08335">
        <ele>96.400001525879</ele>
        <time>2011-07-06T10:41:59.000Z</time>
      </trkpt>
      <trkpt lat="43.67853" lon="7.08347">
        <ele>100.19999694824</ele>
        <time>2011-07-06T10:42:06.000Z</time>
      </trkpt>
      <trkpt lat="43.67838" lon="7.08357">
        <ele>105.19999694824</ele>
        <time>2011-07-06T10:42:12.000Z</time>
      </trkpt>
      <trkpt lat="43.67834" lon="7.0836">
        <ele>106.40000152588</ele>
        <time>2011-07-06T10:42:15.000Z</time>
      </trkpt>
      <trkpt lat="43.67833" lon="7.08371">
        <ele>106.19999694824</ele>
        <time>2011-07-06T10:42:19.000Z</time>
      </trkpt>
      <trkpt lat="43.67825" lon="7.08384">
        <ele>107.40000152588</ele>
        <time>2011-07-06T10:42:25.000Z</time>
      </trkpt>
      <trkpt lat="43.67816" lon="7.08397">
        <ele>108.59999847412</ele>
        <time>2011-07-06T10:42:32.000Z</time>
      </trkpt>
      <trkpt lat="43.67808" lon="7.08406">
        <ele>109.59999847412</ele>
        <time>2011-07-06T10:42:37.000Z</time>
      </trkpt>
      <trkpt lat="43.67797" lon="7.08415">
        <ele>110.59999847412</ele>
        <time>2011-07-06T10:42:42.000Z</time>
      </trkpt>
      <trkpt lat="43.67788" lon="7.08431">
        <ele>109.19999694824</ele>
        <time>2011-07-06T10:42:47.000Z</time>
      </trkpt>
      <trkpt lat="43.67776" lon="7.08449">
        <ele>107.59999847412</ele>
        <time>2011-07-06T10:42:53.000Z</time>
      </trkpt>
      <trkpt lat="43.67762" lon="7.08458">
        <ele>107.80000305176</ele>
        <time>2011-07-06T10:42:59.000Z</time>
      </trkpt>
      <trkpt lat="43.67749" lon="7.08466">
        <ele>108.59999847412</ele>
        <time>2011-07-06T10:43:04.000Z</time>
      </trkpt>
      <trkpt lat="43.67737" lon="7.08474">
        <ele>108.80000305176</ele>
        <time>2011-07-06T10:43:09.000Z</time>
      </trkpt>
      <trkpt lat="43.67719" lon="7.0849">
        <ele>108.40000152588</ele>
        <time>2011-07-06T10:43:16.000Z</time>
      </trkpt>
      <trkpt lat="43.67704" lon="7.08504">
        <ele>107.80000305176</ele>
        <time>2011-07-06T10:43:21.000Z</time>
      </trkpt>
      <trkpt lat="43.67679" lon="7.08519">
        <ele>108.80000305176</ele>
        <time>2011-07-06T10:43:28.000Z</time>
      </trkpt>
      <trkpt lat="43.67659" lon="7.0853">
        <ele>109.19999694824</ele>
        <time>2011-07-06T10:43:33.000Z</time>
      </trkpt>
      <trkpt lat="43.67651" lon="7.08533">
        <ele>109.59999847412</ele>
        <time>2011-07-06T10:43:35.000Z</time>
      </trkpt>
      <trkpt lat="43.67635" lon="7.08535">
        <ele>111</ele>
        <time>2011-07-06T10:43:39.000Z</time>
      </trkpt>
      <trkpt lat="43.67617" lon="7.08534">
        <ele>113.19999694824</ele>
        <time>2011-07-06T10:43:45.000Z</time>
      </trkpt>
      <trkpt lat="43.67596" lon="7.08535">
        <ele>115.59999847412</ele>
        <time>2011-07-06T10:43:51.000Z</time>
      </trkpt>
      <trkpt lat="43.67572" lon="7.08542">
        <ele>116.80000305176</ele>
        <time>2011-07-06T10:43:58.000Z</time>
      </trkpt>
      <trkpt lat="43.67555" lon="7.08556">
        <ele>115.80000305176</ele>
        <time>2011-07-06T10:44:03.000Z</time>
      </trkpt>
      <trkpt lat="43.67535" lon="7.08574">
        <ele>113.80000305176</ele>
        <time>2011-07-06T10:44:07.000Z</time>
      </trkpt>
      <trkpt lat="43.67511" lon="7.08588">
        <ele>113.59999847412</ele>
        <time>2011-07-06T10:44:11.000Z</time>
      </trkpt>
      <trkpt lat="43.67493" lon="7.0859">
        <ele>114.59999847412</ele>
        <time>2011-07-06T10:44:14.000Z</time>
      </trkpt>
      <trkpt lat="43.67463" lon="7.08589">
        <ele>115.80000305176</ele>
        <time>2011-07-06T10:44:20.000Z</time>
      </trkpt>
      <trkpt lat="43.67455" lon="7.08588">
        <ele>116.19999694824</ele>
        <time>2011-07-06T10:44:22.000Z</time>
      </trkpt>
      <trkpt lat="43.67423" lon="7.08573">
        <ele>119.80000305176</ele>
        <time>2011-07-06T10:44:31.000Z</time>
      </trkpt>
      <trkpt lat="43.67411" lon="7.08566">
        <ele>121.40000152588</ele>
        <time>2011-07-06T10:44:36.000Z</time>
      </trkpt>
      <trkpt lat="43.67395" lon="7.08554">
        <ele>124</ele>
        <time>2011-07-06T10:44:43.000Z</time>
      </trkpt>
      <trkpt lat="43.67383" lon="7.08547">
        <ele>125.40000152588</ele>
        <time>2011-07-06T10:44:49.000Z</time>
      </trkpt>
      <trkpt lat="43.67369" lon="7.0854">
        <ele>127</ele>
        <time>2011-07-06T10:44:56.000Z</time>
      </trkpt>
      <trkpt lat="43.67354" lon="7.08535">
        <ele>128</ele>
        <time>2011-07-06T10:45:03.000Z</time>
      </trkpt>
      <trkpt lat="43.67343" lon="7.08527">
        <ele>129.80000305176</ele>
        <time>2011-07-06T10:45:09.000Z</time>
      </trkpt>
      <trkpt lat="43.67325" lon="7.08514">
        <ele>132.19999694824</ele>
        <time>2011-07-06T10:45:18.000Z</time>
      </trkpt>
      <trkpt lat="43.67316" lon="7.08508">
        <ele>133.19999694824</ele>
        <time>2011-07-06T10:45:23.000Z</time>
      </trkpt>
      <trkpt lat="43.67301" lon="7.085">
        <ele>134.19999694824</ele>
        <time>2011-07-06T10:45:30.000Z</time>
      </trkpt>
      <trkpt lat="43.67284" lon="7.08491">
        <ele>135.80000305176</ele>
        <time>2011-07-06T10:45:39.000Z</time>
      </trkpt>
      <trkpt lat="43.67273" lon="7.08482">
        <ele>137.80000305176</ele>
        <time>2011-07-06T10:45:46.000Z</time>
      </trkpt>
      <trkpt lat="43.67257" lon="7.08465">
        <ele>141</ele>
        <time>2011-07-06T10:45:55.000Z</time>
      </trkpt>
      <trkpt lat="43.67247" lon="7.08446">
        <ele>145.39999389648</ele>
        <time>2011-07-06T10:46:03.000Z</time>
      </trkpt>
      <trkpt lat="43.67233" lon="7.08431">
        <ele>149.19999694824</ele>
        <time>2011-07-06T10:46:12.000Z</time>
      </trkpt>
      <trkpt lat="43.67223" lon="7.08424">
        <ele>151</ele>
        <time>2011-07-06T10:46:18.000Z</time>
      </trkpt>
      <trkpt lat="43.67217" lon="7.08419">
        <ele>152.19999694824</ele>
        <time>2011-07-06T10:46:23.000Z</time>
      </trkpt>
      <trkpt lat="43.67207" lon="7.08412">
        <ele>153.80000305176</ele>
        <time>2011-07-06T10:46:28.000Z</time>
      </trkpt>
      <trkpt lat="43.67192" lon="7.08401">
        <ele>156.19999694824</ele>
        <time>2011-07-06T10:46:36.000Z</time>
      </trkpt>
      <trkpt lat="43.67178" lon="7.08398">
        <ele>157</ele>
        <time>2011-07-06T10:46:43.000Z</time>
      </trkpt>
      <trkpt lat="43.67168" lon="7.08403">
        <ele>156.39999389648</ele>
        <time>2011-07-06T10:46:49.000Z</time>
      </trkpt>
      <trkpt lat="43.67153" lon="7.08407">
        <ele>157.80000305176</ele>
        <time>2011-07-06T10:46:57.000Z</time>
      </trkpt>
      <trkpt lat="43.67142" lon="7.0841">
        <ele>159.19999694824</ele>
        <time>2011-07-06T10:47:03.000Z</time>
      </trkpt>
      <trkpt lat="43.67139" lon="7.08412">
        <ele>159.19999694824</ele>
        <time>2011-07-06T10:47:05.000Z</time>
      </trkpt>
      <trkpt lat="43.67129" lon="7.08416">
        <ele>160.39999389648</ele>
        <time>2011-07-06T10:47:11.000Z</time>
      </trkpt>
      <trkpt lat="43.67114" lon="7.08423">
        <ele>161.80000305176</ele>
        <time>2011-07-06T10:47:19.000Z</time>
      </trkpt>
      <trkpt lat="43.67102" lon="7.08435">
        <ele>161.60000610352</ele>
        <time>2011-07-06T10:47:27.000Z</time>
      </trkpt>
      <trkpt lat="43.67093" lon="7.08442">
        <ele>162</ele>
        <time>2011-07-06T10:47:33.000Z</time>
      </trkpt>
      <trkpt lat="43.67082" lon="7.08452">
        <ele>162</ele>
        <time>2011-07-06T10:47:39.000Z</time>
      </trkpt>
      <trkpt lat="43.67066" lon="7.0846">
        <ele>162</ele>
        <time>2011-07-06T10:47:47.000Z</time>
      </trkpt>
      <trkpt lat="43.67052" lon="7.08463">
        <ele>162.60000610352</ele>
        <time>2011-07-06T10:47:54.000Z</time>
      </trkpt>
      <trkpt lat="43.67041" lon="7.08465">
        <ele>163.19999694824</ele>
        <time>2011-07-06T10:47:59.000Z</time>
      </trkpt>
      <trkpt lat="43.67029" lon="7.08465">
        <ele>164.19999694824</ele>
        <time>2011-07-06T10:48:05.000Z</time>
      </trkpt>
      <trkpt lat="43.67013" lon="7.08467">
        <ele>165.19999694824</ele>
        <time>2011-07-06T10:48:12.000Z</time>
      </trkpt>
      <trkpt lat="43.67" lon="7.08469">
        <ele>166</ele>
        <time>2011-07-06T10:48:18.000Z</time>
      </trkpt>
      <trkpt lat="43.6698" lon="7.08464">
        <ele>168.39999389648</ele>
        <time>2011-07-06T10:48:27.000Z</time>
      </trkpt>
      <trkpt lat="43.66964" lon="7.08456">
        <ele>170.60000610352</ele>
        <time>2011-07-06T10:48:35.000Z</time>
      </trkpt>
      <trkpt lat="43.66964" lon="7.08456">
        <ele>170.60000610352</ele>
        <time>2011-07-06T10:48:39.000Z</time>
      </trkpt>
      <trkpt lat="43.66961" lon="7.08461">
        <ele>170.39999389648</ele>
        <time>2011-07-06T10:48:55.000Z</time>
      </trkpt>
      <trkpt lat="43.66957" lon="7.08458">
        <ele>171</ele>
        <time>2011-07-06T10:49:00.000Z</time>
      </trkpt>
      <trkpt lat="43.66957" lon="7.08463">
        <ele>170.60000610352</ele>
        <time>2011-07-06T10:49:03.000Z</time>
      </trkpt>
      <trkpt lat="43.6697" lon="7.08477">
        <ele>167.80000305176</ele>
        <time>2011-07-06T10:49:09.000Z</time>
      </trkpt>
      <trkpt lat="43.66979" lon="7.08487">
        <ele>165.60000610352</ele>
        <time>2011-07-06T10:49:12.000Z</time>
      </trkpt>
      <trkpt lat="43.66988" lon="7.08505">
        <ele>162.60000610352</ele>
        <time>2011-07-06T10:49:15.000Z</time>
      </trkpt>
      <trkpt lat="43.66998" lon="7.08538">
        <ele>157.19999694824</ele>
        <time>2011-07-06T10:49:19.000Z</time>
      </trkpt>
      <trkpt lat="43.67003" lon="7.08554">
        <ele>154.60000610352</ele>
        <time>2011-07-06T10:49:21.000Z</time>
      </trkpt>
      <trkpt lat="43.67004" lon="7.0858">
        <ele>151</ele>
        <time>2011-07-06T10:49:25.000Z</time>
      </trkpt>
      <trkpt lat="43.66995" lon="7.08583">
        <ele>152</ele>
        <time>2011-07-06T10:49:27.000Z</time>
      </trkpt>
      <trkpt lat="43.66983" lon="7.08588">
        <ele>154</ele>
        <time>2011-07-06T10:49:30.000Z</time>
      </trkpt>
      <trkpt lat="43.66984" lon="7.08605">
        <ele>153.39999389648</ele>
        <time>2011-07-06T10:49:33.000Z</time>
      </trkpt>
      <trkpt lat="43.66986" lon="7.08611">
        <ele>152.80000305176</ele>
        <time>2011-07-06T10:49:34.000Z</time>
      </trkpt>
      <trkpt lat="43.66994" lon="7.08638">
        <ele>150.60000610352</ele>
        <time>2011-07-06T10:49:39.000Z</time>
      </trkpt>
      <trkpt lat="43.67008" lon="7.08657">
        <ele>148.60000610352</ele>
        <time>2011-07-06T10:49:45.000Z</time>
      </trkpt>
      <trkpt lat="43.67023" lon="7.08667">
        <ele>147.19999694824</ele>
        <time>2011-07-06T10:49:51.000Z</time>
      </trkpt>
      <trkpt lat="43.67018" lon="7.08679">
        <ele>147.80000305176</ele>
        <time>2011-07-06T10:49:57.000Z</time>
      </trkpt>
      <trkpt lat="43.67015" lon="7.08685">
        <ele>148</ele>
        <time>2011-07-06T10:50:12.000Z</time>
      </trkpt>
      <trkpt lat="43.67015" lon="7.08687">
        <ele>148.19999694824</ele>
        <time>2011-07-06T10:50:17.000Z</time>
      </trkpt>
      <trkpt lat="43.67019" lon="7.08689">
        <ele>148</ele>
        <time>2011-07-06T10:50:21.000Z</time>
      </trkpt>
      <trkpt lat="43.67021" lon="7.08691">
        <ele>148</ele>
        <time>2011-07-06T10:50:23.000Z</time>
      </trkpt>
      <trkpt lat="43.67021" lon="7.08697">
        <ele>148</ele>
        <time>2011-07-06T10:50:29.000Z</time>
      </trkpt>
      <trkpt lat="43.6702" lon="7.08701">
        <ele>148.19999694824</ele>
        <time>2011-07-06T10:50:34.000Z</time>
      </trkpt>
      <trkpt lat="43.67018" lon="7.08705">
        <ele>148.19999694824</ele>
        <time>2011-07-06T10:50:38.000Z</time>
      </trkpt>
      <trkpt lat="43.67019" lon="7.0871">
        <ele>148.39999389648</ele>
        <time>2011-07-06T10:50:43.000Z</time>
      </trkpt>
      <trkpt lat="43.6702" lon="7.08716">
        <ele>148.39999389648</ele>
        <time>2011-07-06T10:50:47.000Z</time>
      </trkpt>
      <trkpt lat="43.6702" lon="7.08724">
        <ele>148.60000610352</ele>
        <time>2011-07-06T10:50:53.000Z</time>
      </trkpt>
      <trkpt lat="43.67021" lon="7.08728">
        <ele>148.60000610352</ele>
        <time>2011-07-06T10:51:00.000Z</time>
      </trkpt>
      <trkpt lat="43.67017" lon="7.08727">
        <ele>148.80000305176</ele>
        <time>2011-07-06T10:51:03.000Z</time>
      </trkpt>
      <trkpt lat="43.67003" lon="7.08718">
        <ele>148.80000305176</ele>
        <time>2011-07-06T10:51:09.000Z</time>
      </trkpt>
      <trkpt lat="43.66984" lon="7.08709">
        <ele>151.19999694824</ele>
        <time>2011-07-06T10:51:17.000Z</time>
      </trkpt>
      <trkpt lat="43.66973" lon="7.08704">
        <ele>153</ele>
        <time>2011-07-06T10:51:22.000Z</time>
      </trkpt>
      <trkpt lat="43.66961" lon="7.08701">
        <ele>154.80000305176</ele>
        <time>2011-07-06T10:51:27.000Z</time>
      </trkpt>
      <trkpt lat="43.66951" lon="7.0871">
        <ele>156.19999694824</ele>
        <time>2011-07-06T10:51:32.000Z</time>
      </trkpt>
      <trkpt lat="43.6694" lon="7.08733">
        <ele>156.80000305176</ele>
        <time>2011-07-06T10:51:40.000Z</time>
      </trkpt>
      <trkpt lat="43.66935" lon="7.08749">
        <ele>156.80000305176</ele>
        <time>2011-07-06T10:51:45.000Z</time>
      </trkpt>
      <trkpt lat="43.66929" lon="7.0877">
        <ele>155.60000610352</ele>
        <time>2011-07-06T10:51:51.000Z</time>
      </trkpt>
      <trkpt lat="43.66922" lon="7.08792">
        <ele>154.39999389648</ele>
        <time>2011-07-06T10:51:56.000Z</time>
      </trkpt>
      <trkpt lat="43.66918" lon="7.08812">
        <ele>152.80000305176</ele>
        <time>2011-07-06T10:52:00.000Z</time>
      </trkpt>
      <trkpt lat="43.66913" lon="7.08837">
        <ele>150.39999389648</ele>
        <time>2011-07-06T10:52:04.000Z</time>
      </trkpt>
      <trkpt lat="43.66908" lon="7.08861">
        <ele>148</ele>
        <time>2011-07-06T10:52:08.000Z</time>
      </trkpt>
      <trkpt lat="43.66893" lon="7.08895">
        <ele>144</ele>
        <time>2011-07-06T10:52:14.000Z</time>
      </trkpt>
      <trkpt lat="43.66878" lon="7.08934">
        <ele>140.19999694824</ele>
        <time>2011-07-06T10:52:21.000Z</time>
      </trkpt>
      <trkpt lat="43.66876" lon="7.0894">
        <ele>140</ele>
        <time>2011-07-06T10:52:22.000Z</time>
      </trkpt>
      <trkpt lat="43.6686" lon="7.08955">
        <ele>139.19999694824</ele>
        <time>2011-07-06T10:52:26.000Z</time>
      </trkpt>
      <trkpt lat="43.66847" lon="7.08974">
        <ele>138.80000305176</ele>
        <time>2011-07-06T10:52:30.000Z</time>
      </trkpt>
      <trkpt lat="43.66847" lon="7.0899">
        <ele>138.60000610352</ele>
        <time>2011-07-06T10:52:33.000Z</time>
      </trkpt>
      <trkpt lat="43.66854" lon="7.08996">
        <ele>138.19999694824</ele>
        <time>2011-07-06T10:52:36.000Z</time>
      </trkpt>
      <trkpt lat="43.66856" lon="7.09009">
        <ele>138</ele>
        <time>2011-07-06T10:52:39.000Z</time>
      </trkpt>
      <trkpt lat="43.66854" lon="7.09037">
        <ele>137.39999389648</ele>
        <time>2011-07-06T10:52:44.000Z</time>
      </trkpt>
      <trkpt lat="43.66852" lon="7.09066">
        <ele>137.19999694824</ele>
        <time>2011-07-06T10:52:49.000Z</time>
      </trkpt>
      <trkpt lat="43.66851" lon="7.09071">
        <ele>137.19999694824</ele>
        <time>2011-07-06T10:52:50.000Z</time>
      </trkpt>
      <trkpt lat="43.66851" lon="7.09091">
        <ele>136.60000610352</ele>
        <time>2011-07-06T10:52:53.000Z</time>
      </trkpt>
      <trkpt lat="43.6685" lon="7.09108">
        <ele>135.80000305176</ele>
        <time>2011-07-06T10:52:56.000Z</time>
      </trkpt>
      <trkpt lat="43.66847" lon="7.09125">
        <ele>135.19999694824</ele>
        <time>2011-07-06T10:52:59.000Z</time>
      </trkpt>
      <trkpt lat="43.66843" lon="7.09165">
        <ele>133.80000305176</ele>
        <time>2011-07-06T10:53:05.000Z</time>
      </trkpt>
      <trkpt lat="43.66839" lon="7.09199">
        <ele>130.19999694824</ele>
        <time>2011-07-06T10:53:10.000Z</time>
      </trkpt>
      <trkpt lat="43.66836" lon="7.09234">
        <ele>126.59999847412</ele>
        <time>2011-07-06T10:53:15.000Z</time>
      </trkpt>
      <trkpt lat="43.6683" lon="7.09255">
        <ele>124</ele>
        <time>2011-07-06T10:53:19.000Z</time>
      </trkpt>
      <trkpt lat="43.66834" lon="7.09271">
        <ele>121.59999847412</ele>
        <time>2011-07-06T10:53:23.000Z</time>
      </trkpt>
      <trkpt lat="43.66842" lon="7.0928">
        <ele>119.80000305176</ele>
        <time>2011-07-06T10:53:27.000Z</time>
      </trkpt>
      <trkpt lat="43.66851" lon="7.09302">
        <ele>116.19999694824</ele>
        <time>2011-07-06T10:53:32.000Z</time>
      </trkpt>
      <trkpt lat="43.66852" lon="7.09332">
        <ele>112</ele>
        <time>2011-07-06T10:53:37.000Z</time>
      </trkpt>
      <trkpt lat="43.66847" lon="7.09345">
        <ele>111.19999694824</ele>
        <time>2011-07-06T10:53:39.000Z</time>
      </trkpt>
      <trkpt lat="43.66836" lon="7.09384">
        <ele>108.80000305176</ele>
        <time>2011-07-06T10:53:44.000Z</time>
      </trkpt>
      <trkpt lat="43.66835" lon="7.09415">
        <ele>107.19999694824</ele>
        <time>2011-07-06T10:53:48.000Z</time>
      </trkpt>
      <trkpt lat="43.66832" lon="7.09443">
        <ele>105.19999694824</ele>
        <time>2011-07-06T10:53:52.000Z</time>
      </trkpt>
      <trkpt lat="43.66825" lon="7.09465">
        <ele>103.80000305176</ele>
        <time>2011-07-06T10:53:55.000Z</time>
      </trkpt>
      <trkpt lat="43.6681" lon="7.09489">
        <ele>102.40000152588</ele>
        <time>2011-07-06T10:53:59.000Z</time>
      </trkpt>
      <trkpt lat="43.66801" lon="7.09493">
        <ele>102</ele>
        <time>2011-07-06T10:54:01.000Z</time>
      </trkpt>
      <trkpt lat="43.66795" lon="7.09495">
        <ele>102</ele>
        <time>2011-07-06T10:54:03.000Z</time>
      </trkpt>
      <trkpt lat="43.66783" lon="7.095">
        <ele>101.80000305176</ele>
        <time>2011-07-06T10:54:08.000Z</time>
      </trkpt>
      <trkpt lat="43.66781" lon="7.09502">
        <ele>101.80000305176</ele>
        <time>2011-07-06T10:54:09.000Z</time>
      </trkpt>
      <trkpt lat="43.66776" lon="7.09506">
        <ele>101.80000305176</ele>
        <time>2011-07-06T10:54:12.000Z</time>
      </trkpt>
      <trkpt lat="43.66775" lon="7.09509">
        <ele>101.59999847412</ele>
        <time>2011-07-06T10:54:18.000Z</time>
      </trkpt>
      <trkpt lat="43.66776" lon="7.09509">
        <ele>101.59999847412</ele>
        <time>2011-07-06T10:54:26.000Z</time>
      </trkpt>
      <trkpt lat="43.66776" lon="7.09508">
        <ele>101.59999847412</ele>
        <time>2011-07-06T10:54:36.000Z</time>
      </trkpt>
      <trkpt lat="43.66776" lon="7.09509">
        <ele>101.59999847412</ele>
        <time>2011-07-06T10:54:51.000Z</time>
      </trkpt>
      <trkpt lat="43.66777" lon="7.09508">
        <ele>101.59999847412</ele>
        <time>2011-07-06T10:55:06.000Z</time>
      </trkpt>
      <trkpt lat="43.66778" lon="7.09511">
        <ele>101.59999847412</ele>
        <time>2011-07-06T10:55:27.000Z</time>
      </trkpt>
      <trkpt lat="43.66776" lon="7.09528">
        <ele>101</ele>
        <time>2011-07-06T10:55:30.000Z</time>
      </trkpt>
      <trkpt lat="43.6677" lon="7.09559">
        <ele>100.19999694824</ele>
        <time>2011-07-06T10:55:34.000Z</time>
      </trkpt>
      <trkpt lat="43.66768" lon="7.09567">
        <ele>100</ele>
        <time>2011-07-06T10:55:35.000Z</time>
      </trkpt>
      <trkpt lat="43.66756" lon="7.09609">
        <ele>98</ele>
        <time>2011-07-06T10:55:40.000Z</time>
      </trkpt>
      <trkpt lat="43.6675" lon="7.09622">
        <ele>97.199996948242</ele>
        <time>2011-07-06T10:55:42.000Z</time>
      </trkpt>
      <trkpt lat="43.66744" lon="7.09638">
        <ele>95.599998474121</ele>
        <time>2011-07-06T10:55:44.000Z</time>
      </trkpt>
      <trkpt lat="43.66729" lon="7.09693">
        <ele>91</ele>
        <time>2011-07-06T10:55:50.000Z</time>
      </trkpt>
      <trkpt lat="43.66726" lon="7.09701">
        <ele>90.400001525879</ele>
        <time>2011-07-06T10:55:51.000Z</time>
      </trkpt>
      <trkpt lat="43.66715" lon="7.09724">
        <ele>88.800003051758</ele>
        <time>2011-07-06T10:55:54.000Z</time>
      </trkpt>
      <trkpt lat="43.66699" lon="7.09756">
        <ele>87.199996948242</ele>
        <time>2011-07-06T10:55:58.000Z</time>
      </trkpt>
      <trkpt lat="43.66691" lon="7.09803">
        <ele>86</ele>
        <time>2011-07-06T10:56:03.000Z</time>
      </trkpt>
      <trkpt lat="43.66686" lon="7.09831">
        <ele>85.400001525879</ele>
        <time>2011-07-06T10:56:06.000Z</time>
      </trkpt>
      <trkpt lat="43.6667" lon="7.09864">
        <ele>84.400001525879</ele>
        <time>2011-07-06T10:56:10.000Z</time>
      </trkpt>
      <trkpt lat="43.66664" lon="7.09891">
        <ele>83</ele>
        <time>2011-07-06T10:56:13.000Z</time>
      </trkpt>
      <trkpt lat="43.66663" lon="7.099">
        <ele>82.599998474121</ele>
        <time>2011-07-06T10:56:14.000Z</time>
      </trkpt>
      <trkpt lat="43.6665" lon="7.09944">
        <ele>78.400001525879</ele>
        <time>2011-07-06T10:56:19.000Z</time>
      </trkpt>
      <trkpt lat="43.66647" lon="7.09987">
        <ele>74.199996948242</ele>
        <time>2011-07-06T10:56:23.000Z</time>
      </trkpt>
      <trkpt lat="43.66644" lon="7.09997">
        <ele>73.199996948242</ele>
        <time>2011-07-06T10:56:24.000Z</time>
      </trkpt>
      <trkpt lat="43.66647" lon="7.10032">
        <ele>69.199996948242</ele>
        <time>2011-07-06T10:56:29.000Z</time>
      </trkpt>
      <trkpt lat="43.6665" lon="7.10058">
        <ele>66.199996948242</ele>
        <time>2011-07-06T10:56:33.000Z</time>
      </trkpt>
      <trkpt lat="43.66644" lon="7.10077">
        <ele>64.400001525879</ele>
        <time>2011-07-06T10:56:37.000Z</time>
      </trkpt>
      <trkpt lat="43.66644" lon="7.10101">
        <ele>63.200000762939</ele>
        <time>2011-07-06T10:56:40.000Z</time>
      </trkpt>
      <trkpt lat="43.66647" lon="7.10135">
        <ele>61.599998474121</ele>
        <time>2011-07-06T10:56:44.000Z</time>
      </trkpt>
      <trkpt lat="43.66655" lon="7.10144">
        <ele>60</ele>
        <time>2011-07-06T10:56:46.000Z</time>
      </trkpt>
      <trkpt lat="43.66666" lon="7.10149">
        <ele>58</ele>
        <time>2011-07-06T10:56:48.000Z</time>
      </trkpt>
      <trkpt lat="43.66683" lon="7.10154">
        <ele>56.799999237061</ele>
        <time>2011-07-06T10:56:52.000Z</time>
      </trkpt>
      <trkpt lat="43.66692" lon="7.10163">
        <ele>55.799999237061</ele>
        <time>2011-07-06T10:56:54.000Z</time>
      </trkpt>
      <trkpt lat="43.66709" lon="7.10192">
        <ele>52.799999237061</ele>
        <time>2011-07-06T10:56:59.000Z</time>
      </trkpt>
      <trkpt lat="43.66719" lon="7.10205">
        <ele>51</ele>
        <time>2011-07-06T10:57:02.000Z</time>
      </trkpt>
      <trkpt lat="43.6673" lon="7.10222">
        <ele>48.400001525879</ele>
        <time>2011-07-06T10:57:06.000Z</time>
      </trkpt>
      <trkpt lat="43.66744" lon="7.1024">
        <ele>44.799999237061</ele>
        <time>2011-07-06T10:57:11.000Z</time>
      </trkpt>
      <trkpt lat="43.6675" lon="7.10262">
        <ele>43.200000762939</ele>
        <time>2011-07-06T10:57:15.000Z</time>
      </trkpt>
      <trkpt lat="43.66757" lon="7.10271">
        <ele>43.200000762939</ele>
        <time>2011-07-06T10:57:17.000Z</time>
      </trkpt>
      <trkpt lat="43.66778" lon="7.10295">
        <ele>42</ele>
        <time>2011-07-06T10:57:23.000Z</time>
      </trkpt>
      <trkpt lat="43.66794" lon="7.10316">
        <ele>39.599998474121</ele>
        <time>2011-07-06T10:57:27.000Z</time>
      </trkpt>
      <trkpt lat="43.66801" lon="7.10327">
        <ele>38</ele>
        <time>2011-07-06T10:57:29.000Z</time>
      </trkpt>
      <trkpt lat="43.66814" lon="7.10345">
        <ele>35.599998474121</ele>
        <time>2011-07-06T10:57:33.000Z</time>
      </trkpt>
      <trkpt lat="43.66819" lon="7.10361">
        <ele>34.400001525879</ele>
        <time>2011-07-06T10:57:36.000Z</time>
      </trkpt>
      <trkpt lat="43.6682" lon="7.10392">
        <ele>33.200000762939</ele>
        <time>2011-07-06T10:57:42.000Z</time>
      </trkpt>
      <trkpt lat="43.66826" lon="7.1041">
        <ele>31.39999961853</ele>
        <time>2011-07-06T10:57:46.000Z</time>
      </trkpt>
      <trkpt lat="43.6682" lon="7.10419">
        <ele>32.599998474121</ele>
        <time>2011-07-06T10:57:49.000Z</time>
      </trkpt>
      <trkpt lat="43.6682" lon="7.1042">
        <ele>32.799999237061</ele>
        <time>2011-07-06T10:57:54.000Z</time>
      </trkpt>
      <trkpt lat="43.66823" lon="7.1042">
        <ele>31.799999237061</ele>
        <time>2011-07-06T10:58:01.000Z</time>
      </trkpt>
      <trkpt lat="43.66826" lon="7.10419">
        <ele>31</ele>
        <time>2011-07-06T10:58:10.000Z</time>
      </trkpt>
      <trkpt lat="43.66842" lon="7.10414">
        <ele>28.799999237061</ele>
        <time>2011-07-06T10:58:16.000Z</time>
      </trkpt>
      <trkpt lat="43.66867" lon="7.10406">
        <ele>28.799999237061</ele>
        <time>2011-07-06T10:58:23.000Z</time>
      </trkpt>
      <trkpt lat="43.66892" lon="7.10403">
        <ele>28.799999237061</ele>
        <time>2011-07-06T10:58:30.000Z</time>
      </trkpt>
      <trkpt lat="43.66909" lon="7.10413">
        <ele>27.60000038147</ele>
        <time>2011-07-06T10:58:35.000Z</time>
      </trkpt>
      <trkpt lat="43.66933" lon="7.1043">
        <ele>26.200000762939</ele>
        <time>2011-07-06T10:58:43.000Z</time>
      </trkpt>
      <trkpt lat="43.66944" lon="7.10434">
        <ele>25.799999237061</ele>
        <time>2011-07-06T10:58:47.000Z</time>
      </trkpt>
      <trkpt lat="43.66948" lon="7.10451">
        <ele>24.799999237061</ele>
        <time>2011-07-06T10:58:51.000Z</time>
      </trkpt>
      <trkpt lat="43.66943" lon="7.10488">
        <ele>22.60000038147</ele>
        <time>2011-07-06T10:58:57.000Z</time>
      </trkpt>
      <trkpt lat="43.66928" lon="7.10523">
        <ele>21.799999237061</ele>
        <time>2011-07-06T10:59:04.000Z</time>
      </trkpt>
      <trkpt lat="43.66915" lon="7.10565">
        <ele>22</ele>
        <time>2011-07-06T10:59:12.000Z</time>
      </trkpt>
      <trkpt lat="43.66902" lon="7.10594">
        <ele>22.39999961853</ele>
        <time>2011-07-06T10:59:18.000Z</time>
      </trkpt>
      <trkpt lat="43.66892" lon="7.10637">
        <ele>20.799999237061</ele>
        <time>2011-07-06T10:59:26.000Z</time>
      </trkpt>
      <trkpt lat="43.66882" lon="7.10683">
        <ele>19.39999961853</ele>
        <time>2011-07-06T10:59:35.000Z</time>
      </trkpt>
      <trkpt lat="43.66874" lon="7.10709">
        <ele>19.200000762939</ele>
        <time>2011-07-06T10:59:40.000Z</time>
      </trkpt>
      <trkpt lat="43.66857" lon="7.10768">
        <ele>19.39999961853</ele>
        <time>2011-07-06T10:59:50.000Z</time>
      </trkpt>
      <trkpt lat="43.66847" lon="7.10822">
        <ele>20</ele>
        <time>2011-07-06T10:59:59.000Z</time>
      </trkpt>
      <trkpt lat="43.66845" lon="7.10841">
        <ele>20.39999961853</ele>
        <time>2011-07-06T11:00:02.000Z</time>
      </trkpt>
      <trkpt lat="43.66838" lon="7.10864">
        <ele>21</ele>
        <time>2011-07-06T11:00:06.000Z</time>
      </trkpt>
      <trkpt lat="43.66822" lon="7.10906">
        <ele>25.200000762939</ele>
        <time>2011-07-06T11:00:14.000Z</time>
      </trkpt>
      <trkpt lat="43.66815" lon="7.10948">
        <ele>25.799999237061</ele>
        <time>2011-07-06T11:00:21.000Z</time>
      </trkpt>
      <trkpt lat="43.66814" lon="7.1096">
        <ele>25.60000038147</ele>
        <time>2011-07-06T11:00:23.000Z</time>
      </trkpt>
      <trkpt lat="43.66801" lon="7.10984">
        <ele>26.39999961853</ele>
        <time>2011-07-06T11:00:28.000Z</time>
      </trkpt>
      <trkpt lat="43.66791" lon="7.10997">
        <ele>26.60000038147</ele>
        <time>2011-07-06T11:00:31.000Z</time>
      </trkpt>
      <trkpt lat="43.66786" lon="7.11007">
        <ele>26.60000038147</ele>
        <time>2011-07-06T11:00:33.000Z</time>
      </trkpt>
      <trkpt lat="43.66784" lon="7.1102">
        <ele>25.799999237061</ele>
        <time>2011-07-06T11:00:37.000Z</time>
      </trkpt>
      <trkpt lat="43.66788" lon="7.11031">
        <ele>24.799999237061</ele>
        <time>2011-07-06T11:00:39.000Z</time>
      </trkpt>
      <trkpt lat="43.66791" lon="7.11067">
        <ele>22.39999961853</ele>
        <time>2011-07-06T11:00:45.000Z</time>
      </trkpt>
      <trkpt lat="43.66776" lon="7.11092">
        <ele>21.200000762939</ele>
        <time>2011-07-06T11:00:50.000Z</time>
      </trkpt>
      <trkpt lat="43.66751" lon="7.11122">
        <ele>21</ele>
        <time>2011-07-06T11:00:57.000Z</time>
      </trkpt>
      <trkpt lat="43.66747" lon="7.11126">
        <ele>21</ele>
        <time>2011-07-06T11:00:58.000Z</time>
      </trkpt>
      <trkpt lat="43.66728" lon="7.11142">
        <ele>21.39999961853</ele>
        <time>2011-07-06T11:01:03.000Z</time>
      </trkpt>
      <trkpt lat="43.66709" lon="7.11167">
        <ele>21</ele>
        <time>2011-07-06T11:01:09.000Z</time>
      </trkpt>
      <trkpt lat="43.66694" lon="7.11182">
        <ele>21</ele>
        <time>2011-07-06T11:01:13.000Z</time>
      </trkpt>
      <trkpt lat="43.66686" lon="7.11186">
        <ele>21</ele>
        <time>2011-07-06T11:01:15.000Z</time>
      </trkpt>
      <trkpt lat="43.66676" lon="7.11188">
        <ele>21</ele>
        <time>2011-07-06T11:01:17.000Z</time>
      </trkpt>
      <trkpt lat="43.66648" lon="7.11192">
        <ele>22</ele>
        <time>2011-07-06T11:01:24.000Z</time>
      </trkpt>
      <trkpt lat="43.66635" lon="7.11187">
        <ele>22.799999237061</ele>
        <time>2011-07-06T11:01:28.000Z</time>
      </trkpt>
      <trkpt lat="43.66631" lon="7.11188">
        <ele>23.200000762939</ele>
        <time>2011-07-06T11:01:29.000Z</time>
      </trkpt>
      <trkpt lat="43.66607" lon="7.11205">
        <ele>24.200000762939</ele>
        <time>2011-07-06T11:01:35.000Z</time>
      </trkpt>
      <trkpt lat="43.66597" lon="7.11213">
        <ele>24.39999961853</ele>
        <time>2011-07-06T11:01:38.000Z</time>
      </trkpt>
      <trkpt lat="43.6658" lon="7.11224">
        <ele>25.200000762939</ele>
        <time>2011-07-06T11:01:43.000Z</time>
      </trkpt>
      <trkpt lat="43.66561" lon="7.11242">
        <ele>25.799999237061</ele>
        <time>2011-07-06T11:01:49.000Z</time>
      </trkpt>
      <trkpt lat="43.66543" lon="7.11255">
        <ele>26.39999961853</ele>
        <time>2011-07-06T11:01:54.000Z</time>
      </trkpt>
      <trkpt lat="43.66539" lon="7.11258">
        <ele>26.39999961853</ele>
        <time>2011-07-06T11:01:55.000Z</time>
      </trkpt>
      <trkpt lat="43.66527" lon="7.11256">
        <ele>27.39999961853</ele>
        <time>2011-07-06T11:01:57.000Z</time>
      </trkpt>
      <trkpt lat="43.66513" lon="7.11241">
        <ele>29.39999961853</ele>
        <time>2011-07-06T11:02:02.000Z</time>
      </trkpt>
      <trkpt lat="43.66502" lon="7.11219">
        <ele>31.60000038147</ele>
        <time>2011-07-06T11:02:05.000Z</time>
      </trkpt>
      <trkpt lat="43.6649" lon="7.1122">
        <ele>32</ele>
        <time>2011-07-06T11:02:10.000Z</time>
      </trkpt>
      <trkpt lat="43.66486" lon="7.11224">
        <ele>31.799999237061</ele>
        <time>2011-07-06T11:02:11.000Z</time>
      </trkpt>
      <trkpt lat="43.66462" lon="7.11243">
        <ele>31.200000762939</ele>
        <time>2011-07-06T11:02:17.000Z</time>
      </trkpt>
      <trkpt lat="43.66451" lon="7.1126">
        <ele>30.200000762939</ele>
        <time>2011-07-06T11:02:21.000Z</time>
      </trkpt>
      <trkpt lat="43.66444" lon="7.1128">
        <ele>28.799999237061</ele>
        <time>2011-07-06T11:02:25.000Z</time>
      </trkpt>
      <trkpt lat="43.66429" lon="7.11286">
        <ele>28.60000038147</ele>
        <time>2011-07-06T11:02:29.000Z</time>
      </trkpt>
      <trkpt lat="43.66414" lon="7.11291">
        <ele>28.60000038147</ele>
        <time>2011-07-06T11:02:34.000Z</time>
      </trkpt>
      <trkpt lat="43.66402" lon="7.11302">
        <ele>28</ele>
        <time>2011-07-06T11:02:38.000Z</time>
      </trkpt>
      <trkpt lat="43.66384" lon="7.11317">
        <ele>27.39999961853</ele>
        <time>2011-07-06T11:02:43.000Z</time>
      </trkpt>
      <trkpt lat="43.66371" lon="7.11324">
        <ele>27.39999961853</ele>
        <time>2011-07-06T11:02:46.000Z</time>
      </trkpt>
      <trkpt lat="43.6635" lon="7.1133">
        <ele>27.60000038147</ele>
        <time>2011-07-06T11:02:52.000Z</time>
      </trkpt>
      <trkpt lat="43.66337" lon="7.11333">
        <ele>27.799999237061</ele>
        <time>2011-07-06T11:02:55.000Z</time>
      </trkpt>
      <trkpt lat="43.66316" lon="7.11341">
        <ele>28</ele>
        <time>2011-07-06T11:03:00.000Z</time>
      </trkpt>
      <trkpt lat="43.66313" lon="7.11343">
        <ele>27.799999237061</ele>
        <time>2011-07-06T11:03:01.000Z</time>
      </trkpt>
      <trkpt lat="43.66297" lon="7.11347">
        <ele>28.200000762939</ele>
        <time>2011-07-06T11:03:05.000Z</time>
      </trkpt>
      <trkpt lat="43.66275" lon="7.11351">
        <ele>29</ele>
        <time>2011-07-06T11:03:11.000Z</time>
      </trkpt>
      <trkpt lat="43.66258" lon="7.11358">
        <ele>29.200000762939</ele>
        <time>2011-07-06T11:03:16.000Z</time>
      </trkpt>
      <trkpt lat="43.66242" lon="7.11362">
        <ele>30</ele>
        <time>2011-07-06T11:03:20.000Z</time>
      </trkpt>
      <trkpt lat="43.66233" lon="7.11362">
        <ele>30.799999237061</ele>
        <time>2011-07-06T11:03:22.000Z</time>
      </trkpt>
      <trkpt lat="43.66219" lon="7.11367">
        <ele>31.39999961853</ele>
        <time>2011-07-06T11:03:25.000Z</time>
      </trkpt>
      <trkpt lat="43.66206" lon="7.1138">
        <ele>30.39999961853</ele>
        <time>2011-07-06T11:03:29.000Z</time>
      </trkpt>
      <trkpt lat="43.66199" lon="7.11387">
        <ele>29.799999237061</ele>
        <time>2011-07-06T11:03:31.000Z</time>
      </trkpt>
      <trkpt lat="43.66186" lon="7.11396">
        <ele>29</ele>
        <time>2011-07-06T11:03:34.000Z</time>
      </trkpt>
      <trkpt lat="43.6617" lon="7.11402">
        <ele>29</ele>
        <time>2011-07-06T11:03:37.000Z</time>
      </trkpt>
      <trkpt lat="43.66153" lon="7.11416">
        <ele>28</ele>
        <time>2011-07-06T11:03:42.000Z</time>
      </trkpt>
      <trkpt lat="43.66141" lon="7.1143">
        <ele>28.200000762939</ele>
        <time>2011-07-06T11:03:46.000Z</time>
      </trkpt>
      <trkpt lat="43.66124" lon="7.11442">
        <ele>29.200000762939</ele>
        <time>2011-07-06T11:03:50.000Z</time>
      </trkpt>
      <trkpt lat="43.66098" lon="7.11474">
        <ele>28</ele>
        <time>2011-07-06T11:03:57.000Z</time>
      </trkpt>
      <trkpt lat="43.6608" lon="7.11501">
        <ele>27.200000762939</ele>
        <time>2011-07-06T11:04:02.000Z</time>
      </trkpt>
      <trkpt lat="43.66074" lon="7.11513">
        <ele>27.60000038147</ele>
        <time>2011-07-06T11:04:04.000Z</time>
      </trkpt>
      <trkpt lat="43.66058" lon="7.1157">
        <ele>26</ele>
        <time>2011-07-06T11:04:13.000Z</time>
      </trkpt>
      <trkpt lat="43.66041" lon="7.11611">
        <ele>26.60000038147</ele>
        <time>2011-07-06T11:04:19.000Z</time>
      </trkpt>
      <trkpt lat="43.66036" lon="7.11625">
        <ele>26.200000762939</ele>
        <time>2011-07-06T11:04:21.000Z</time>
      </trkpt>
      <trkpt lat="43.66027" lon="7.11661">
        <ele>22.799999237061</ele>
        <time>2011-07-06T11:04:26.000Z</time>
      </trkpt>
      <trkpt lat="43.66025" lon="7.11668">
        <ele>22.200000762939</ele>
        <time>2011-07-06T11:04:27.000Z</time>
      </trkpt>
      <trkpt lat="43.6602" lon="7.11679">
        <ele>22</ele>
        <time>2011-07-06T11:04:29.000Z</time>
      </trkpt>
      <trkpt lat="43.66006" lon="7.11695">
        <ele>22.39999961853</ele>
        <time>2011-07-06T11:04:34.000Z</time>
      </trkpt>
      <trkpt lat="43.66" lon="7.11713">
        <ele>21.39999961853</ele>
        <time>2011-07-06T11:04:39.000Z</time>
      </trkpt>
      <trkpt lat="43.65998" lon="7.11717">
        <ele>21.200000762939</ele>
        <time>2011-07-06T11:04:40.000Z</time>
      </trkpt>
      <trkpt lat="43.65987" lon="7.11751">
        <ele>18.39999961853</ele>
        <time>2011-07-06T11:04:46.000Z</time>
      </trkpt>
      <trkpt lat="43.65973" lon="7.11781">
        <ele>16.39999961853</ele>
        <time>2011-07-06T11:04:51.000Z</time>
      </trkpt>
      <trkpt lat="43.65965" lon="7.11802">
        <ele>14.800000190735</ele>
        <time>2011-07-06T11:04:54.000Z</time>
      </trkpt>
      <trkpt lat="43.6595" lon="7.11829">
        <ele>12.60000038147</ele>
        <time>2011-07-06T11:04:59.000Z</time>
      </trkpt>
      <trkpt lat="43.6594" lon="7.11853">
        <ele>12.39999961853</ele>
        <time>2011-07-06T11:05:03.000Z</time>
      </trkpt>
      <trkpt lat="43.65932" lon="7.11872">
        <ele>12.60000038147</ele>
        <time>2011-07-06T11:05:06.000Z</time>
      </trkpt>
      <trkpt lat="43.65915" lon="7.11903">
        <ele>13</ele>
        <time>2011-07-06T11:05:11.000Z</time>
      </trkpt>
      <trkpt lat="43.65899" lon="7.11921">
        <ele>13</ele>
        <time>2011-07-06T11:05:15.000Z</time>
      </trkpt>
      <trkpt lat="43.6587" lon="7.11952">
        <ele>13.39999961853</ele>
        <time>2011-07-06T11:05:22.000Z</time>
      </trkpt>
      <trkpt lat="43.65853" lon="7.11974">
        <ele>13.60000038147</ele>
        <time>2011-07-06T11:05:28.000Z</time>
      </trkpt>
      <trkpt lat="43.65847" lon="7.1198">
        <ele>13.60000038147</ele>
        <time>2011-07-06T11:05:32.000Z</time>
      </trkpt>
      <trkpt lat="43.65844" lon="7.11977">
        <ele>13.60000038147</ele>
        <time>2011-07-06T11:05:36.000Z</time>
      </trkpt>
      <trkpt lat="43.65848" lon="7.1198">
        <ele>13.60000038147</ele>
        <time>2011-07-06T11:05:38.000Z</time>
      </trkpt>
      <trkpt lat="43.65864" lon="7.12004">
        <ele>14</ele>
        <time>2011-07-06T11:05:43.000Z</time>
      </trkpt>
      <trkpt lat="43.65876" lon="7.1202">
        <ele>14.39999961853</ele>
        <time>2011-07-06T11:05:46.000Z</time>
      </trkpt>
      <trkpt lat="43.65876" lon="7.12037">
        <ele>14.800000190735</ele>
        <time>2011-07-06T11:05:49.000Z</time>
      </trkpt>
      <trkpt lat="43.65881" lon="7.12066">
        <ele>15.800000190735</ele>
        <time>2011-07-06T11:05:53.000Z</time>
      </trkpt>
      <trkpt lat="43.65876" lon="7.12089">
        <ele>16.39999961853</ele>
        <time>2011-07-06T11:05:56.000Z</time>
      </trkpt>
      <trkpt lat="43.65859" lon="7.12108">
        <ele>16.39999961853</ele>
        <time>2011-07-06T11:06:00.000Z</time>
      </trkpt>
      <trkpt lat="43.65846" lon="7.1212">
        <ele>15.60000038147</ele>
        <time>2011-07-06T11:06:04.000Z</time>
      </trkpt>
    </trkseg>
  </trk>
</gpx>